Data for 09/30/2011

Time Sea-Level Adjusted Pressure Absolute Pressure Temperature Relative Humidity Dew Point Precipitation   
(mb) (inHg) (mb) (inHg) (C) (F) (%) (C) (F) (mm) (in)
00:01 1024 30.24 853 25.19 8.9 48 45 -2.4 27.6 -89.5 -3.524
00:02 1024 30.24 853 25.19 8.8 47.9 45 -2.3 27.8 -89.5 -3.524
00:03 1024 30.24 853 25.19 8.8 47.9 45 -2.4 27.8 -89.5 -3.524
00:04 1024 30.24 853 25.19 8.8 47.8 46 -2.3 27.8 -89.5 -3.524
00:05 1024 30.24 853 25.19 8.7 47.6 46 -2.2 28 -89.5 -3.524
00:06 1024 30.24 854 25.22 8.6 47.5 46 -2.2 28 -89.5 -3.524
00:07 1024 30.24 854 25.22 8.5 47.3 48 -1.8 28.7 -89.5 -3.524
00:08 1024 30.24 854 25.22 8.2 46.8 49 -1.9 28.6 -89.6 -3.528
00:09 1024 30.24 854 25.22 8 46.4 50 -1.8 28.8 -89.6 -3.528
00:10 1024 30.24 854 25.22 7.8 46 51 -1.7 29 -89.6 -3.528
00:11 1024 30.24 854 25.22 7.5 45.5 52 -1.8 28.8 -89.6 -3.528
00:12 1024 30.24 854 25.22 7.4 45.3 52 -1.9 28.7 -89.6 -3.528
00:13 1024 30.24 854 25.22 7.4 45.3 52 -1.9 28.6 -89.6 -3.528
00:14 1024 30.24 854 25.22 7.4 45.3 51 -1.9 28.5 -89.6 -3.528
00:15 1024 30.24 854 25.22 7.4 45.3 51 -2 28.5 -89.6 -3.528
00:16 1024 30.24 854 25.22 7.3 45.2 52 -1.9 28.5 -89.6 -3.528
00:17 1024 30.24 854 25.22 7.4 45.3 52 -1.8 28.7 -89.6 -3.528
00:18 1024 30.24 854 25.22 7.3 45.2 53 -1.7 28.9 -89.6 -3.528
00:19 1024 30.24 854 25.22 7.2 45 53 -1.6 29.1 -89.6 -3.528
00:20 1024 30.24 854 25.22 7 44.6 54 -1.7 28.9 -89.6 -3.528
00:21 1024 30.24 854 25.22 6.9 44.5 54 -1.6 29 -89.6 -3.528
00:22 1024 30.24 854 25.22 6.8 44.3 55 -1.5 29.2 -89.6 -3.528
00:23 1024 30.24 854 25.22 6.7 44 56 -1.5 29.2 -89.6 -3.528
00:24 1024 30.24 854 25.22 6.6 43.8 56 -1.5 29.2 -89.6 -3.528
00:25 1024 30.24 854 25.22 6.6 43.8 56 -1.6 29.2 -89.7 -3.531
00:26 1024 30.24 854 25.22 6.5 43.7 56 -1.6 29.2 -89.7 -3.531
00:27 1024 30.24 854 25.22 6.5 43.7 56 -1.6 29.1 -89.7 -3.531
00:28 1024 30.24 854 25.22 6.5 43.8 56 -1.6 29.1 -89.7 -3.531
00:29 1024 30.24 854 25.22 6.6 43.9 55 -1.8 28.8 -89.7 -3.531
00:30 1024 30.24 854 25.22 6.7 44 55 -1.8 28.8 -89.7 -3.531
00:31 1024 30.24 854 25.22 6.7 44.1 55 -1.7 28.9 -89.7 -3.531
00:32 1024 30.24 854 25.22 6.7 44.1 55 -1.7 29 -89.7 -3.531
00:33 1024 30.24 853 25.19 6.7 44 55 -1.8 28.8 -89.7 -3.531
00:34 1024 30.24 853 25.19 6.7 44.1 54 -2 28.4 -89.7 -3.531
00:35 1024 30.24 853 25.19 6.9 44.4 53 -2.1 28.2 -89.7 -3.531
00:36 1024 30.24 853 25.19 7.1 44.7 52 -2 28.3 -89.7 -3.531
00:37 1024 30.24 853 25.19 7.1 44.8 52 -2 28.4 -89.7 -3.531
00:38 1024 30.24 853 25.19 7.2 44.9 52 -2 28.4 -89.7 -3.531
00:39 1024 30.24 853 25.19 7.2 45 52 -2.1 28.3 -89.8 -3.535
00:40 1024 30.24 853 25.19 7.3 45.1 52 -2 28.5 -89.8 -3.535
00:41 1024 30.24 853 25.19 7.2 44.9 54 -1.6 29.1 -89.8 -3.535
00:42 1024 30.24 853 25.19 6.9 44.4 55 -1.5 29.3 -89.8 -3.535
00:43 1024 30.24 853 25.19 6.7 44.1 55 -1.6 29.1 -89.8 -3.535
00:44 1024 30.24 853 25.19 6.7 44 56 -1.6 29.2 -89.8 -3.535
00:45 1024 30.24 853 25.19 6.6 43.9 56 -1.4 29.4 -89.8 -3.535
00:46 1024 30.24 853 25.19 6.5 43.6 57 -1.5 29.3 -89.8 -3.535
00:47 1024 30.24 853 25.19 6.3 43.3 58 -1.4 29.5 -89.8 -3.535
00:48 1024 30.24 853 25.19 6.2 43.1 58 -1.4 29.4 -89.8 -3.535
00:49 1024 30.24 853 25.19 6.1 42.9 58 -1.5 29.3 -89.8 -3.535
00:50 1024 30.24 853 25.19 6.1 42.9 58 -1.5 29.3 -89.8 -3.535
00:51 1024 30.24 853 25.19 6 42.8 59 -1.3 29.6 -89.8 -3.535
00:52 1024 30.24 853 25.19 5.9 42.5 59 -1.4 29.5 -89.9 -3.539
00:53 1024 30.24 853 25.19 5.9 42.6 59 -1.5 29.4 -89.9 -3.539
00:54 1024 30.24 853 25.19 5.9 42.6 59 -1.5 29.3 -89.9 -3.539
00:55 1024 30.24 853 25.19 6 42.7 59 -1.5 29.3 -89.9 -3.539
00:56 1024 30.24 853 25.19 6.1 43 58 -1.5 29.4 -89.9 -3.539
00:57 1024 30.24 853 25.19 6.3 43.3 58 -1.4 29.5 -89.9 -3.539
00:58 1024 30.24 853 25.19 6.4 43.5 57 -1.4 29.4 -89.9 -3.539
00:59 1024 30.24 853 25.19 6.5 43.7 57 -1.4 29.5 -89.9 -3.539
01:00 1024 30.24 853 25.19 6.6 43.8 57 -1.4 29.4 -89.9 -3.539
01:01 1024 30.24 853 25.19 6.6 43.8 57 -1.4 29.5 -89.9 -3.539
01:02 1024 30.24 853 25.19 6.6 43.9 56 -1.4 29.5 -89.9 -3.539
01:03 1024 30.24 853 25.19 6.7 44 56 -1.5 29.3 -89.9 -3.539
01:04 1024 30.24 853 25.19 6.7 44.1 56 -1.3 29.6 -89.9 -3.539
01:05 1024 30.24 853 25.19 6.6 43.9 57 -1.4 29.6 -89.9 -3.539
01:06 1024 30.24 853 25.19 6.6 43.8 57 -1.3 29.7 -89.9 -3.539
01:07 1024 30.24 853 25.19 6.4 43.6 57 -1.4 29.4 -89.9 -3.539
01:08 1024 30.24 853 25.19 6.5 43.7 57 -1.5 29.4 -89.9 -3.539
01:09 1024 30.24 853 25.19 6.6 43.8 57 -1.4 29.4 -89.9 -3.539
01:10 1024 30.24 853 25.19 6.6 43.9 57 -1.3 29.6 -89.9 -3.539
01:11 1024 30.24 853 25.19 6.6 43.8 57 -1.3 29.7 -89.9 -3.539
01:12 1024 30.24 853 25.19 6.6 43.8 57 -1.3 29.6 -89.9 -3.539
01:13 1024 30.24 853 25.19 6.5 43.8 57 -1.3 29.7 -89.9 -3.539
01:14 1024 30.24 853 25.19 6.4 43.5 59 -1.1 30 -89.9 -3.539
01:15 1024 30.24 853 25.19 6.2 43.1 60 -1.1 30.1 -90 -3.543
01:16 1024 30.24 853 25.19 5.9 42.6 61 -1.1 30.1 -90 -3.543
01:17 1024 30.24 853 25.19 5.6 42.1 62 -1.1 30 -90 -3.543
01:18 1024 30.24 853 25.19 5.4 41.6 63 -1.1 30.1 -90 -3.543
01:19 1024 30.24 853 25.19 5.2 41.3 64 -1.1 30 -90 -3.543
01:20 1024 30.24 853 25.19 5.1 41.3 64 -1.1 30 -90 -3.543
01:21 1024 30.24 853 25.19 5.1 41.1 65 -1 30.1 -90 -3.543
01:22 1024 30.24 853 25.19 5 41 65 -1 30.2 -90 -3.543
01:23 1024 30.24 853 25.19 4.9 40.8 65 -1 30.1 -90 -3.543
01:24 1024 30.24 853 25.19 4.8 40.7 65 -1.1 30 -90 -3.543
01:25 1024 30.24 853 25.19 4.8 40.6 66 -1.1 30 -90 -3.543
01:26 1024 30.24 853 25.19 4.7 40.4 66 -1.1 29.9 -90 -3.543
01:27 1024 30.24 853 25.19 4.6 40.3 66 -1.1 30 -90 -3.543
01:28 1024 30.24 853 25.19 4.5 40.2 67 -1.1 30 -90 -3.543
01:29 1024 30.24 853 25.19 4.5 40.1 67 -1.1 30.1 -90 -3.543
01:30 1024 30.24 853 25.19 4.4 39.9 67 -1.1 30 -90 -3.543
01:31 1024 30.24 853 25.19 4.3 39.7 68 -1.1 30.1 -90 -3.543
01:32 1024 30.24 853 25.19 4.2 39.6 69 -1.1 30.1 -90 -3.543
01:33 1024 30.24 853 25.19 4.2 39.6 69 -1 30.1 -90 -3.543
01:34 1024 30.24 853 25.19 4.2 39.6 69 -1 30.2 -90 -3.543
01:35 1024 30.24 853 25.19 4.3 39.8 68 -1 30.1 -90 -3.543
01:36 1024 30.24 853 25.19 4.3 39.8 68 -1 30.2 -90.1 -3.547
01:37 1024 30.24 853 25.19 4.2 39.5 69 -1 30.1 -90.1 -3.547
01:38 1024 30.24 853 25.19 4 39.2 70 -1 30.1 -90.1 -3.547
01:39 1024 30.24 853 25.19 3.7 38.7 71 -1.1 30.1 -90.1 -3.547
01:40 1024 30.24 853 25.19 3.5 38.3 72 -1.1 30.1 -90.1 -3.547
01:41 1024 30.24 853 25.19 3.4 38 73 -1.1 30.1 -90.1 -3.547
01:42 1024 30.24 853 25.19 3.2 37.8 73 -1.1 30 -90.1 -3.547
01:43 1024 30.24 853 25.19 3.2 37.7 74 -1.1 30.1 -90.1 -3.547
01:44 1024 30.24 853 25.19 3.1 37.7 74 -1.1 30.1 -90.1 -3.547
01:45 1024 30.24 853 25.19 3.2 37.7 74 -1 30.1 -90.1 -3.547
01:46 1024 30.24 853 25.19 3.2 37.7 74 -1.1 30.1 -90.1 -3.547
01:47 1024 30.24 853 25.19 3.2 37.7 74 -1 30.1 -90.1 -3.547
01:48 1024 30.24 853 25.19 3.2 37.8 74 -1.1 30.1 -90.1 -3.547
01:49 1024 30.24 853 25.19 3.2 37.8 74 -1 30.1 -90.1 -3.547
01:50 1024 30.24 853 25.19 3.2 37.8 73 -1.1 30.1 -90.1 -3.547
01:51 1024 30.24 853 25.19 3.2 37.7 74 -1.1 30.1 -90.1 -3.547
01:52 1024 30.24 853 25.19 3.2 37.7 74 -1 30.2 -90.1 -3.547
01:53 1024 30.24 853 25.19 3.2 37.8 74 -1 30.2 -90.1 -3.547
01:54 1024 30.24 853 25.19 3.2 37.8 73 -1.1 30 -90.1 -3.547
01:55 1024 30.24 853 25.19 3.1 37.7 74 -1.1 30.1 -90.1 -3.547
01:56 1024 30.24 853 25.19 3.1 37.5 75 -1 30.2 -90.1 -3.547
01:57 1024 30.24 853 25.19 3.1 37.5 75 -0.9 30.3 -90.1 -3.547
01:58 1024 30.24 853 25.19 3.2 37.7 75 -0.9 30.4 -90.1 -3.547
01:59 1024 30.24 853 25.19 3.2 37.8 74 -0.9 30.4 -90.1 -3.547
02:00 1024 30.24 853 25.19 3.3 38 74 -0.9 30.4 -90.1 -3.547
02:01 1024 30.24 853 25.19 3.4 38.1 74 -0.8 30.5 -90.1 -3.547
02:02 1024 30.24 853 25.19 3.4 38 74 -0.8 30.5 -90.1 -3.547
02:03 1024 30.24 853 25.19 3.3 38 74 -0.8 30.5 -90.1 -3.547
02:04 1024 30.24 853 25.19 3.2 37.8 75 -0.9 30.5 -90.2 -3.551
02:05 1024 30.24 853 25.19 3.2 37.7 75 -0.8 30.6 -90.2 -3.551
02:06 1024 30.24 853 25.19 3.1 37.6 75 -0.8 30.5 -90.2 -3.551
02:07 1024 30.24 853 25.19 3.1 37.5 76 -0.8 30.6 -90.2 -3.551
02:08 1024 30.24 853 25.19 3 37.4 76 -0.8 30.5 -90.2 -3.551
02:09 1024 30.24 853 25.19 2.9 37.3 76 -0.8 30.5 -90.2 -3.551
02:10 1024 30.24 853 25.19 2.9 37.3 77 -0.8 30.6 -90.2 -3.551
02:11 1024 30.24 853 25.19 3 37.3 76 -0.8 30.5 -90.2 -3.551
02:12 1024 30.24 853 25.19 3 37.5 76 -0.8 30.5 -90.2 -3.551
02:13 1024 30.24 853 25.19 3.1 37.5 76 -0.8 30.5 -90.2 -3.551
02:14 1024 30.24 853 25.19 3.2 37.7 75 -0.9 30.4 -90.2 -3.551
02:15 1024 30.24 853 25.19 3.2 37.8 75 -0.8 30.5 -90.2 -3.551
02:16 1024 30.24 853 25.19 3.3 37.9 74 -0.9 30.5 -90.2 -3.551
02:17 1024 30.24 853 25.19 3.3 37.9 74 -0.8 30.5 -90.2 -3.551
02:18 1024 30.24 853 25.19 3.3 37.9 75 -0.8 30.6 -90.2 -3.551
02:19 1024 30.24 853 25.19 3.3 37.9 75 -0.7 30.7 -90.2 -3.551
02:20 1024 30.24 853 25.19 3.2 37.7 75 -0.8 30.6 -90.2 -3.551
02:21 1024 30.24 853 25.19 3.2 37.8 76 -0.7 30.7 -90.2 -3.551
02:22 1024 30.24 853 25.19 3.2 37.7 75 -0.8 30.6 -90.2 -3.551
02:23 1024 30.24 853 25.19 3.2 37.8 75 -0.7 30.7 -90.2 -3.551
02:24 1024 30.24 853 25.19 3.3 37.9 75 -0.8 30.6 -90.2 -3.551
02:25 1024 30.24 853 25.19 3.4 38.2 74 -0.8 30.6 -90.2 -3.551
02:26 1024 30.24 853 25.19 3.5 38.3 74 -0.7 30.7 -90.2 -3.551
02:27 1024 30.24 853 25.19 3.5 38.3 74 -0.7 30.7 -90.2 -3.551
02:28 1024 30.24 853 25.19 3.4 38.2 74 -0.7 30.7 -90.2 -3.551
02:29 1024 30.24 853 25.19 3.3 38 75 -0.7 30.8 -90.2 -3.551
02:30 1024 30.24 853 25.19 3.3 37.9 75 -0.7 30.8 -90.2 -3.551
02:31 1024 30.24 853 25.19 3.3 38 75 -0.7 30.7 -90.2 -3.551
02:32 1024 30.24 853 25.19 3.4 38.1 75 -0.7 30.7 -90.2 -3.551
02:33 1024 30.24 853 25.19 3.5 38.2 74 -0.7 30.7 -90.2 -3.551
02:34 1024 30.24 853 25.19 3.4 38 74 -0.8 30.5 -90.2 -3.551
02:35 1024 30.24 853 25.19 3.2 37.8 75 -0.8 30.6 -90.2 -3.551
02:36 1024 30.24 853 25.19 3.2 37.7 76 -0.8 30.6 -90.2 -3.551
02:37 1024 30.24 853 25.19 3.1 37.6 76 -0.7 30.7 -90.2 -3.551
02:38 1024 30.24 853 25.19 3.1 37.6 76 -0.7 30.8 -90.2 -3.551
02:39 1024 30.24 853 25.19 3 37.4 77 -0.6 30.8 -90.2 -3.551
02:40 1024 30.24 853 25.19 2.9 37.2 77 -0.8 30.6 -90.2 -3.551
02:41 1024 30.24 853 25.19 2.8 37.1 77 -0.9 30.5 -90.2 -3.551
02:42 1024 30.24 853 25.19 3 37.4 76 -0.9 30.4 -90.2 -3.551
02:43 1024 30.24 853 25.19 3.2 37.7 74 -0.9 30.3 -90.2 -3.551
02:44 1024 30.24 853 25.19 3.4 38.1 73 -0.9 30.4 -90.2 -3.551
02:45 1024 30.24 853 25.19 3.5 38.3 73 -0.9 30.5 -90.3 -3.555
02:46 1024 30.24 853 25.19 3.5 38.3 74 -0.7 30.7 -90.3 -3.555
02:47 1024 30.24 853 25.19 3.3 38 75 -0.7 30.7 -90.3 -3.555
02:48 1024 30.24 853 25.19 3.3 37.9 75 -0.7 30.7 -90.3 -3.555
02:49 1024 30.24 853 25.19 3.3 37.9 75 -0.7 30.7 -90.3 -3.555
02:50 1024 30.24 853 25.19 3.4 38.2 74 -0.8 30.5 -90.3 -3.555
02:51 1024 30.24 853 25.19 3.4 38.2 73 -0.9 30.4 -90.3 -3.555
02:52 1024 30.24 853 25.19 3.3 37.9 75 -0.8 30.6 -90.3 -3.555
02:53 1024 30.24 853 25.19 3.3 37.9 75 -0.7 30.7 -90.3 -3.555
02:54 1024 30.24 853 25.19 3.5 38.3 72 -1.1 30 -90.3 -3.555
02:55 1024 30.24 853 25.19 4.1 39.3 69 -1 30.1 -90.3 -3.555
02:56 1024 30.24 853 25.19 4.3 39.7 69 -0.9 30.3 -90.3 -3.555
02:57 1024 30.24 853 25.19 4.1 39.4 70 -0.9 30.5 -90.4 -3.559
02:58 1024 30.24 853 25.19 3.9 39 72 -0.8 30.6 -90.4 -3.559
02:59 1024 30.24 853 25.19 3.8 38.8 72 -0.8 30.5 -90.4 -3.559
03:00 1024 30.24 853 25.19 3.7 38.6 73 -0.7 30.7 -90.4 -3.559
03:01 1024 30.24 853 25.19 3.4 38.1 74 -0.8 30.5 -90.4 -3.559
03:02 1024 30.24 853 25.19 3.1 37.5 76 -0.8 30.6 -90.4 -3.559
03:03 1024 30.24 853 25.19 2.7 36.9 77 -0.9 30.4 -90.3 -3.555
03:04 1024 30.24 853 25.19 2.5 36.5 78 -0.9 30.3 -90.3 -3.555
03:05 1024 30.24 853 25.19 2.2 36 79 -1 30.3 -90.3 -3.555
03:06 1024 30.24 853 25.19 2.2 35.9 80 -0.8 30.5 -90.3 -3.555
03:07 1024 30.24 853 25.19 2.2 35.9 81 -0.8 30.6 -90.3 -3.555
03:08 1024 30.24 853 25.19 2.2 36 79 -1 30.3 -90.3 -3.555
03:09 1024 30.24 853 25.19 2.2 36 80 -0.9 30.3 -90.3 -3.555
03:10 1024 30.24 853 25.19 2.3 36.1 79 -1 30.1 -90.2 -3.551
03:11 1024 30.24 853 25.19 2.3 36.1 79 -1 30.3 -90.2 -3.551
03:12 1024 30.24 853 25.19 2.4 36.3 79 -0.9 30.3 -90.2 -3.551
03:13 1024 30.24 853 25.19 2.5 36.5 78 -1 30.3 -90.2 -3.551
03:14 1024 30.24 853 25.19 2.6 36.6 79 -0.8 30.6 -90.2 -3.551
03:15 1024 30.24 853 25.19 2.7 36.9 78 -0.7 30.8 -90.2 -3.551
03:16 1024 30.24 853 25.19 2.8 37 78 -0.6 30.9 -90.2 -3.551
03:17 1024 30.24 853 25.19 2.7 36.9 78 -0.7 30.8 -90.2 -3.551
03:18 1024 30.24 853 25.19 2.7 36.8 78 -0.8 30.6 -90.2 -3.551
03:19 1024 30.24 853 25.19 2.4 36.4 79 -0.9 30.5 -90.2 -3.551
03:20 1024 30.24 853 25.19 2.3 36.1 80 -0.9 30.4 -90.2 -3.551
03:21 1024 30.24 853 25.19 2.2 36 81 -0.8 30.6 -90.2 -3.551
03:22 1024 30.24 853 25.19 2.2 35.9 81 -0.8 30.6 -90.2 -3.551
03:23 1024 30.24 853 25.19 2.2 35.9 81 -0.8 30.6 -90.1 -3.547
03:24 1024 30.24 853 25.19 2.1 35.8 81 -0.8 30.5 -90.1 -3.547
03:25 1024 30.24 853 25.19 2.1 35.8 81 -0.8 30.5 -90.1 -3.547
03:26 1024 30.24 853 25.19 2 35.6 81 -0.9 30.4 -90.1 -3.547
03:27 1024 30.24 853 25.19 1.9 35.4 82 -0.9 30.4 -90.1 -3.547
03:28 1024 30.24 853 25.19 1.8 35.3 82 -0.9 30.4 -90.1 -3.547
03:29 1024 30.24 853 25.19 1.8 35.3 82 -0.9 30.4 -90.1 -3.547
03:30 1024 30.24 853 25.19 1.8 35.3 82 -0.9 30.4 -90.1 -3.547
03:31 1024 30.24 853 25.19 1.8 35.2 82 -1 30.3 -90.1 -3.547
03:32 1024 30.24 853 25.19 1.6 34.9 82 -1.1 30.1 -90 -3.543
03:33 1024 30.24 853 25.19 1.4 34.6 84 -1.1 30.1 -90 -3.543
03:34 1024 30.24 853 25.19 1.4 34.5 84 -1 30.3 -90 -3.543
03:35 1024 30.24 853 25.19 1.3 34.4 85 -1 30.2 -89.9 -3.539
03:36 1024 30.24 853 25.19 1.3 34.3 85 -1 30.2 -89.9 -3.539
03:37 1024 30.24 853 25.19 1.3 34.4 86 -0.8 30.6 -89.8 -3.535
03:38 1024 30.24 853 25.19 1.4 34.6 85 -0.8 30.6 -89.8 -3.535
03:39 1024 30.24 853 25.19 1.5 34.8 84 -1 30.3 -89.7 -3.531
03:40 1024 30.24 853 25.19 1.5 34.7 85 -0.8 30.6 -89.7 -3.531
03:41 1024 30.24 853 25.19 1.7 35 85 -0.6 30.8 -89.7 -3.531
03:42 1024 30.24 853 25.19 2 35.6 82 -0.7 30.7 -89.7 -3.531
03:43 1024 30.24 853 25.19 2.1 35.7 81 -0.8 30.6 -89.7 -3.531
03:44 1024 30.24 853 25.19 2.1 35.8 81 -0.8 30.6 -89.7 -3.531
03:45 1024 30.24 853 25.19 2.1 35.8 81 -0.8 30.5 -89.7 -3.531
03:46 1024 30.24 853 25.19 2.1 35.8 81 -0.8 30.5 -89.7 -3.531
03:47 1024 30.24 853 25.19 2.1 35.8 81 -0.8 30.5 -89.7 -3.531
03:48 1024 30.24 853 25.19 2.1 35.8 81 -0.8 30.5 -89.7 -3.531
03:49 1024 30.24 853 25.19 2.2 35.9 81 -0.8 30.5 -89.8 -3.535
03:50 1024 30.24 853 25.19 2.2 36 80 -0.8 30.5 -89.8 -3.535
03:51 1024 30.24 853 25.19 2.2 35.9 80 -0.9 30.3 -89.8 -3.535
03:52 1024 30.24 853 25.19 2.1 35.8 81 -0.9 30.5 -89.8 -3.535
03:53 1024 30.24 853 25.19 2.1 35.8 81 -0.8 30.6 -89.8 -3.535
03:54 1024 30.24 853 25.19 2.3 36.1 81 -0.6 30.9 -89.8 -3.535
03:55 1024 30.24 853 25.19 2.5 36.4 81 -0.5 31 -89.8 -3.535
03:56 1024 30.24 853 25.19 2.7 36.8 79 -0.6 31 -89.8 -3.535
03:57 1024 30.24 853 25.19 2.8 37.1 78 -0.6 30.9 -89.8 -3.535
03:58 1024 30.24 853 25.19 3 37.5 77 -0.7 30.8 -89.8 -3.535
03:59 1024 30.24 853 25.19 3.2 37.7 76 -0.6 30.9 -89.9 -3.539
04:00 1024 30.24 853 25.19 3.2 37.8 77 -0.5 31.1 -89.9 -3.539
04:01 1024 30.24 853 25.19 3.2 37.8 77 -0.5 31.1 -90 -3.543
04:02 1024 30.24 853 25.19 3.3 37.9 76 -0.5 31.1 -90 -3.543
04:03 1024 30.24 853 25.19 3.3 38 76 -0.5 31.2 -90 -3.543
04:04 1024 30.24 853 25.19 3.4 38 76 -0.5 31.1 -90.1 -3.547
04:05 1024 30.24 853 25.19 3.4 38.1 76 -0.4 31.2 -90.1 -3.547
04:06 1024 30.24 853 25.19 3.4 38 76 -0.4 31.2 -90.1 -3.547
04:07 1024 30.24 853 25.19 3.3 37.9 76 -0.5 31.1 -90.1 -3.547
04:08 1024 30.24 853 25.19 3.2 37.7 76 -0.6 31 -90.1 -3.547
04:09 1024 30.24 853 25.19 3 37.5 78 -0.5 31.1 -90.1 -3.547
04:10 1024 30.24 853 25.19 3 37.3 78 -0.5 31.1 -90.1 -3.547
04:11 1024 30.24 853 25.19 2.9 37.3 78 -0.6 30.9 -90.2 -3.551
04:12 1024 30.24 853 25.19 2.9 37.2 77 -0.6 30.8 -90.2 -3.551
04:13 1024 30.24 853 25.19 2.6 36.8 79 -0.6 30.8 -90.2 -3.551
04:14 1024 30.24 853 25.19 2.6 36.6 79 -0.7 30.7 -90.2 -3.551
04:15 1024 30.24 853 25.19 2.5 36.4 80 -0.7 30.7 -90.2 -3.551
04:16 1024 30.24 853 25.19 2.5 36.4 80 -0.7 30.8 -90.2 -3.551
04:17 1024 30.24 853 25.19 2.5 36.6 79 -0.7 30.7 -90.2 -3.551
04:18 1024 30.24 853 25.19 2.6 36.6 79 -0.6 30.8 -90.2 -3.551
04:19 1024 30.24 853 25.19 2.6 36.7 79 -0.7 30.8 -90.2 -3.551
04:20 1024 30.24 853 25.19 2.6 36.7 79 -0.7 30.8 -90.2 -3.551
04:21 1024 30.24 853 25.19 2.7 36.8 79 -0.7 30.8 -90.2 -3.551
04:22 1024 30.24 853 25.19 2.7 36.8 78 -0.7 30.7 -90.2 -3.551
04:23 1024 30.24 853 25.19 2.8 37 78 -0.7 30.8 -90.2 -3.551
04:24 1024 30.24 853 25.19 2.9 37.3 77 -0.7 30.7 -90.2 -3.551
04:25 1024 30.24 853 25.19 3 37.3 77 -0.7 30.7 -90.2 -3.551
04:26 1024 30.24 853 25.19 3 37.4 77 -0.7 30.8 -90.2 -3.551
04:27 1024 30.24 853 25.19 3.1 37.6 76 -0.7 30.8 -90.3 -3.555
04:28 1024 30.24 853 25.19 3.1 37.7 76 -0.7 30.8 -90.3 -3.555
04:29 1024 30.24 853 25.19 3.1 37.5 77 -0.6 30.9 -90.3 -3.555
04:30 1024 30.24 853 25.19 2.9 37.3 77 -0.7 30.7 -90.3 -3.555
04:31 1024 30.24 853 25.19 2.8 37 77 -0.8 30.6 -90.3 -3.555
04:32 1024 30.24 853 25.19 2.7 36.9 78 -0.7 30.8 -90.3 -3.555
04:33 1024 30.24 853 25.19 2.7 36.8 78 -0.7 30.7 -90.3 -3.555
04:34 1024 30.24 853 25.19 2.7 36.8 78 -0.7 30.7 -90.3 -3.555
04:35 1024 30.24 853 25.19 2.6 36.7 78 -0.8 30.6 -90.3 -3.555
04:36 1024 30.24 853 25.19 2.6 36.7 79 -0.7 30.8 -90.3 -3.555
04:37 1024 30.24 853 25.19 2.6 36.7 79 -0.7 30.7 -90.3 -3.555
04:38 1024 30.24 853 25.19 2.6 36.6 79 -0.7 30.7 -90.3 -3.555
04:39 1024 30.24 853 25.19 2.6 36.7 79 -0.8 30.6 -90.3 -3.555
04:40 1024 30.24 853 25.19 2.6 36.6 78 -0.8 30.5 -90.3 -3.555
04:41 1024 30.24 853 25.19 2.5 36.5 79 -0.8 30.5 -90.3 -3.555
04:42 1024 30.24 853 25.19 2.4 36.3 80 -0.8 30.5 -90.3 -3.555
04:43 1024 30.24 853 25.19 2.4 36.2 80 -0.8 30.6 -90.3 -3.555
04:44 1024 30.24 853 25.19 2.4 36.3 79 -0.8 30.6 -90.3 -3.555
04:45 1024 30.24 853 25.19 2.4 36.3 79 -0.8 30.6 -90.3 -3.555
04:46 1024 30.24 853 25.19 2.4 36.3 80 -0.7 30.7 -90.3 -3.555
04:47 1024 30.24 853 25.19 2.4 36.3 80 -0.7 30.7 -90.3 -3.555
04:48 1024 30.24 853 25.19 2.4 36.3 79 -0.8 30.5 -90.3 -3.555
04:49 1024 30.24 853 25.19 2.4 36.2 80 -0.8 30.6 -90.3 -3.555
04:50 1024 30.24 853 25.19 2.3 36.1 80 -0.8 30.5 -90.3 -3.555
04:51 1024 30.24 853 25.19 2.2 35.9 80 -0.8 30.5 -90.3 -3.555
04:52 1024 30.24 853 25.19 2.2 36 80 -0.9 30.5 -90.3 -3.555
04:53 1024 30.24 853 25.19 2.1 35.7 81 -0.8 30.5 -90.3 -3.555
04:54 1024 30.24 853 25.19 1.9 35.5 82 -0.8 30.5 -90.3 -3.555
04:55 1024 30.24 853 25.19 1.9 35.4 82 -0.8 30.6 -90.3 -3.555
04:56 1024 30.24 853 25.19 2.1 35.7 82 -0.7 30.7 -90.3 -3.555
04:57 1024 30.24 853 25.19 2.1 35.8 82 -0.7 30.8 -90.3 -3.555
04:58 1024 30.24 853 25.19 2.3 36.2 81 -0.6 30.9 -90.3 -3.555
04:59 1024 30.24 853 25.19 2.5 36.4 81 -0.5 31 -90.3 -3.555
05:00 1024 30.24 853 25.19 2.5 36.5 80 -0.6 31 -90.2 -3.551
05:01 1024 30.24 853 25.19 2.5 36.5 80 -0.6 31 -90.2 -3.551
05:02 1024 30.24 853 25.19 2.6 36.6 80 -0.5 31 -90.2 -3.551
05:03 1024 30.24 853 25.19 2.6 36.8 79 -0.6 31 -90.3 -3.555
05:04 1024 30.24 853 25.19 2.7 36.9 79 -0.6 31 -90.3 -3.555
05:05 1024 30.24 853 25.19 2.8 37.1 79 -0.5 31 -90.3 -3.555
05:06 1024 30.24 853 25.19 2.8 37 79 -0.5 31 -90.3 -3.555
05:07 1024 30.24 853 25.19 2.7 36.9 79 -0.5 31 -90.3 -3.555
05:08 1024 30.24 853 25.19 2.7 36.8 79 -0.5 31 -90.3 -3.555
05:09 1024 30.24 853 25.19 2.6 36.7 80 -0.5 31 -90.3 -3.555
05:10 1024 30.24 853 25.19 2.7 36.9 79 -0.5 31.1 -90.3 -3.555
05:11 1024 30.24 853 25.19 2.7 36.9 79 -0.5 31 -90.3 -3.555
05:12 1024 30.24 853 25.19 2.7 36.9 79 -0.5 31 -90.3 -3.555
05:13 1024 30.24 853 25.19 2.6 36.7 79 -0.6 30.9 -90.3 -3.555
05:14 1024 30.24 853 25.19 2.5 36.5 80 -0.6 30.9 -90.3 -3.555
05:15 1024 30.24 853 25.19 2.5 36.5 80 -0.6 30.9 -90.3 -3.555
05:16 1024 30.24 853 25.19 2.6 36.6 80 -0.6 30.9 -90.3 -3.555
05:17 1024 30.24 853 25.19 2.7 36.8 79 -0.6 30.9 -90.3 -3.555
05:18 1024 30.24 853 25.19 2.8 37.1 78 -0.6 30.8 -90.3 -3.555
05:19 1024 30.24 853 25.19 3 37.4 77 -0.7 30.7 -90.3 -3.555
05:20 1024 30.24 853 25.19 3.1 37.6 76 -0.6 30.8 -90.3 -3.555
05:21 1024 30.24 853 25.19 3.2 37.8 75 -0.7 30.7 -90.3 -3.555
05:22 1024 30.24 853 25.19 3.3 38 75 -0.7 30.7 -90.4 -3.559
05:23 1024 30.24 853 25.19 3.2 37.7 76 -0.7 30.7 -90.4 -3.559
05:24 1024 30.24 853 25.19 3 37.3 77 -0.7 30.8 -90.4 -3.559
05:25 1024 30.24 853 25.19 2.9 37.1 77 -0.8 30.6 -90.4 -3.559
05:26 1024 30.24 853 25.19 2.8 37 78 -0.8 30.6 -90.4 -3.559
05:27 1024 30.24 853 25.19 2.7 36.9 78 -0.8 30.6 -90.4 -3.559
05:28 1024 30.24 853 25.19 2.7 36.9 78 -0.7 30.7 -90.4 -3.559
05:29 1024 30.24 853 25.19 3 37.3 77 -0.7 30.8 -90.4 -3.559
05:30 1024 30.24 853 25.19 3 37.5 76 -0.7 30.7 -90.4 -3.559
05:31 1024 30.24 853 25.19 3 37.4 77 -0.7 30.8 -90.4 -3.559
05:32 1024 30.24 853 25.19 3.1 37.6 76 -0.7 30.7 -90.5 -3.563
05:33 1024 30.24 853 25.19 3.2 37.8 76 -0.7 30.8 -90.5 -3.563
05:34 1024 30.24 853 25.19 3.3 38 76 -0.6 31 -90.5 -3.563
05:35 1024 30.24 853 25.19 3.4 38.2 75 -0.5 31.1 -90.5 -3.563
05:36 1024 30.24 853 25.19 3.5 38.3 75 -0.5 31.1 -90.5 -3.563
05:37 1024 30.24 853 25.19 3.6 38.5 75 -0.4 31.2 -90.5 -3.563
05:38 1023 30.21 853 25.19 3.7 38.6 74 -0.5 31.1 -90.5 -3.563
05:39 1023 30.21 853 25.19 3.9 39 73 -0.5 31.1 -90.5 -3.563
05:40 1023 30.21 853 25.19 4.1 39.4 72 -0.5 31.1 -90.5 -3.563
05:41 1023 30.21 853 25.19 4.2 39.6 71 -0.5 31.1 -90.5 -3.563
05:42 1023 30.21 853 25.19 4.4 39.8 71 -0.5 31.1 -90.5 -3.563
05:43 1023 30.21 853 25.19 4.4 39.9 71 -0.4 31.2 -90.5 -3.563
05:44 1023 30.21 853 25.19 4.4 39.9 71 -0.4 31.3 -90.6 -3.567
05:45 1023 30.21 853 25.19 4.4 39.8 71 -0.4 31.3 -90.6 -3.567
05:46 1023 30.21 853 25.19 4.2 39.5 72 -0.5 31.2 -90.6 -3.567
05:47 1023 30.21 853 25.19 3.9 39 73 -0.6 31 -90.6 -3.567
05:48 1023 30.21 853 25.19 3.8 38.8 73 -0.6 30.9 -90.6 -3.567
05:49 1023 30.21 853 25.19 3.7 38.7 73 -0.6 30.9 -90.6 -3.567
05:50 1023 30.21 853 25.19 3.5 38.3 74 -0.6 30.9 -90.6 -3.567
05:51 1023 30.21 853 25.19 3.4 38.2 75 -0.6 30.8 -90.6 -3.567
05:52 1023 30.21 853 25.19 3.6 38.4 74 -0.7 30.8 -90.6 -3.567
05:53 1023 30.21 853 25.19 3.7 38.6 73 -0.7 30.8 -90.6 -3.567
05:54 1023 30.21 853 25.19 3.7 38.6 73 -0.7 30.8 -90.6 -3.567
05:55 1023 30.21 853 25.19 3.5 38.4 74 -0.6 30.8 -90.6 -3.567
05:56 1023 30.21 853 25.19 3.4 38.1 74 -0.7 30.7 -90.6 -3.567
05:57 1023 30.21 853 25.19 3.2 37.8 75 -0.8 30.6 -90.6 -3.567
05:58 1023 30.21 853 25.19 3 37.5 76 -0.8 30.6 -90.6 -3.567
05:59 1023 30.21 853 25.19 2.8 37.1 77 -0.8 30.6 -90.6 -3.567
06:00 1023 30.21 853 25.19 2.7 36.9 78 -0.8 30.6 -90.6 -3.567
06:01 1023 30.21 853 25.19 2.6 36.6 78 -0.9 30.4 -90.6 -3.567
06:02 1023 30.21 853 25.19 2.5 36.4 79 -0.8 30.5 -90.6 -3.567
06:03 1023 30.21 853 25.19 2.4 36.3 79 -0.9 30.4 -90.6 -3.567
06:04 1023 30.21 853 25.19 2.6 36.6 78 -0.9 30.4 -90.6 -3.567
06:05 1023 30.21 853 25.19 2.7 36.9 77 -0.8 30.5 -90.6 -3.567
06:06 1023 30.21 853 25.19 2.7 36.9 78 -0.8 30.6 -90.6 -3.567
06:07 1023 30.21 853 25.19 2.8 37 77 -0.9 30.4 -90.6 -3.567
06:08 1023 30.21 853 25.19 3 37.4 76 -0.8 30.5 -90.6 -3.567
06:09 1023 30.21 853 25.19 3 37.4 76 -0.8 30.5 -90.6 -3.567
06:10 1023 30.21 853 25.19 2.9 37.2 77 -0.8 30.5 -90.6 -3.567
06:11 1023 30.21 853 25.19 2.8 37.1 77 -0.8 30.5 -90.6 -3.567
06:12 1023 30.21 853 25.19 2.9 37.2 77 -0.8 30.5 -90.6 -3.567
06:13 1023 30.21 853 25.19 3 37.5 76 -0.8 30.5 -90.6 -3.567
06:14 1023 30.21 853 25.19 3.1 37.6 75 -0.8 30.5 -90.6 -3.567
06:15 1023 30.21 853 25.19 3.1 37.6 76 -0.8 30.6 -90.6 -3.567
06:16 1023 30.21 853 25.19 3 37.4 76 -0.8 30.6 -90.6 -3.567
06:17 1023 30.21 853 25.19 2.9 37.2 77 -0.8 30.6 -90.6 -3.567
06:18 1023 30.21 853 25.19 2.8 37 77 -0.8 30.6 -90.6 -3.567
06:19 1023 30.21 853 25.19 2.7 36.8 78 -0.7 30.7 -90.6 -3.567
06:20 1023 30.21 853 25.19 2.6 36.6 79 -0.7 30.7 -90.6 -3.567
06:21 1023 30.21 853 25.19 2.6 36.6 79 -0.7 30.7 -90.6 -3.567
06:22 1023 30.21 853 25.19 2.5 36.5 79 -0.7 30.7 -90.6 -3.567
06:23 1023 30.21 853 25.19 2.4 36.3 80 -0.7 30.7 -90.6 -3.567
06:24 1024 30.24 853 25.19 2.4 36.3 80 -0.7 30.7 -90.5 -3.563
06:25 1023 30.21 853 25.19 2.4 36.3 80 -0.7 30.7 -90.5 -3.563
06:26 1024 30.24 853 25.19 2.5 36.4 79 -0.7 30.7 -90.5 -3.563
06:27 1024 30.24 853 25.19 2.5 36.4 79 -0.7 30.7 -90.5 -3.563
06:28 1024 30.24 853 25.19 2.5 36.4 79 -0.8 30.6 -90.5 -3.563
06:29 1024 30.24 853 25.19 2.4 36.3 79 -0.8 30.6 -90.5 -3.563
06:30 1023 30.21 853 25.19 2.3 36.2 80 -0.8 30.6 -90.5 -3.563
06:31 1023 30.21 853 25.19 2.3 36.1 80 -0.8 30.6 -90.5 -3.563
06:32 1023 30.21 853 25.19 2.2 35.9 81 -0.8 30.6 -90.5 -3.563
06:33 1023 30.21 853 25.19 2.1 35.7 81 -0.8 30.5 -90.5 -3.563
06:34 1023 30.21 853 25.19 2 35.7 81 -0.9 30.4 -90.4 -3.559
06:35 1023 30.21 853 25.19 2 35.7 81 -1 30.3 -90.4 -3.559
06:36 1023 30.21 853 25.19 1.9 35.4 81 -1.1 30.1 -90.4 -3.559
06:37 1023 30.21 853 25.19 1.8 35.2 82 -1.1 30.1 -90.4 -3.559
06:38 1023 30.21 853 25.19 1.7 35.1 82 -1 30.2 -90.4 -3.559
06:39 1023 30.21 853 25.19 1.6 34.9 83 -1 30.1 -90.4 -3.559
06:40 1023 30.21 853 25.19 1.6 34.9 83 -1 30.2 -90.3 -3.555
06:41 1023 30.21 853 25.19 1.7 35 83 -1 30.3 -90.3 -3.555
06:42 1023 30.21 853 25.19 1.6 34.9 82 -1.1 30.1 -90.3 -3.555
06:43 1023 30.21 853 25.19 1.6 34.8 82 -1.2 29.9 -90.3 -3.555
06:44 1023 30.21 853 25.19 1.5 34.7 83 -1.1 30 -90.3 -3.555
06:45 1023 30.21 853 25.19 1.4 34.6 84 -1 30.2 -90.3 -3.555
06:46 1023 30.21 853 25.19 1.6 34.8 83 -1.1 30.1 -90.3 -3.555
06:47 1023 30.21 853 25.19 1.6 34.8 82 -1.2 29.9 -90.3 -3.555
06:48 1023 30.21 853 25.19 1.5 34.6 83 -1.2 29.9 -90.3 -3.555
06:49 1023 30.21 853 25.19 1.4 34.5 83 -1.2 29.9 -90.3 -3.555
06:50 1023 30.21 853 25.19 1.4 34.5 84 -1 30.2 -90.2 -3.551
06:51 1023 30.21 853 25.19 1.5 34.7 83 -1.1 30.1 -90.2 -3.551
06:52 1023 30.21 853 25.19 1.7 35 83 -0.8 30.5 -90.2 -3.551
06:53 1023 30.21 853 25.19 2.1 35.7 80 -1 30.3 -90.2 -3.551
06:54 1023 30.21 853 25.19 2.4 36.3 79 -0.9 30.5 -90.3 -3.555
06:55 1023 30.21 853 25.19 2.8 37 76 -1 30.2 -90.3 -3.555
06:56 1023 30.21 853 25.19 3 37.3 76 -0.9 30.3 -90.3 -3.555
06:57 1023 30.21 853 25.19 3 37.4 75 -1 30.3 -90.3 -3.555
06:58 1023 30.21 853 25.19 3.1 37.7 75 -0.8 30.6 -90.4 -3.559
06:59 1023 30.21 853 25.19 3.4 38.1 74 -0.8 30.5 -90.4 -3.559
07:00 1023 30.21 853 25.19 3.5 38.4 72 -1 30.2 -90.4 -3.559
07:01 1023 30.21 853 25.19 3.3 37.9 73 -1.1 30 -90.5 -3.563
07:02 1023 30.21 853 25.19 2.8 37 75 -1.1 29.9 -90.5 -3.563
07:03 1023 30.21 853 25.19 2.4 36.4 77 -1.2 29.8 -90.5 -3.563
07:04 1023 30.21 853 25.19 2.1 35.8 78 -1.3 29.7 -90.5 -3.563
07:05 1023 30.21 853 25.19 1.9 35.4 80 -1.2 29.9 -90.5 -3.563
07:06 1023 30.21 853 25.19 1.8 35.2 81 -1.1 29.9 -90.5 -3.563
07:07 1023 30.21 853 25.19 1.8 35.2 82 -1 30.2 -90.5 -3.563
07:08 1023 30.21 853 25.19 1.8 35.2 82 -1 30.2 -90.5 -3.563
07:09 1023 30.21 853 25.19 1.8 35.2 82 -1 30.3 -90.5 -3.563
07:10 1023 30.21 853 25.19 1.7 35 82 -1 30.2 -90.4 -3.559
07:11 1023 30.21 853 25.19 1.7 35 83 -0.9 30.3 -90.4 -3.559
07:12 1023 30.21 853 25.19 1.6 35 82 -1 30.2 -90.4 -3.559
07:13 1023 30.21 853 25.19 1.6 34.8 82 -1.1 30 -90.4 -3.559
07:14 1023 30.21 853 25.19 1.5 34.7 82 -1.2 29.9 -90.4 -3.559
07:15 1023 30.21 853 25.19 1.4 34.6 83 -1.2 29.9 -90.4 -3.559
07:16 1023 30.21 853 25.19 1.3 34.4 83 -1.2 29.8 -90.4 -3.559
07:17 1024 30.24 853 25.19 1.2 34.2 84 -1.2 29.9 -90.3 -3.555
07:18 1024 30.24 853 25.19 1.3 34.3 84 -1.1 30 -90.3 -3.555
07:19 1024 30.24 853 25.19 1.4 34.5 83 -1.2 29.9 -90.3 -3.555
07:20 1024 30.24 853 25.19 1.3 34.4 84 -1.1 30 -90.3 -3.555
07:21 1024 30.24 853 25.19 1.4 34.4 84 -1.1 30 -90.3 -3.555
07:22 1024 30.24 853 25.19 1.4 34.6 83 -1.1 30.1 -90.3 -3.555
07:23 1024 30.24 853 25.19 1.5 34.7 84 -1 30.3 -90.3 -3.555
07:24 1024 30.24 853 25.19 1.6 34.9 82 -1.1 30.1 -90.3 -3.555
07:25 1024 30.24 853 25.19 1.6 34.8 83 -1 30.2 -90.3 -3.555
07:26 1024 30.24 853 25.19 1.5 34.7 83 -1.1 30.1 -90.2 -3.551
07:27 1024 30.24 853 25.19 1.4 34.5 84 -1 30.2 -90.2 -3.551
07:28 1024 30.24 853 25.19 1.4 34.4 84 -1 30.2 -90.2 -3.551
07:29 1024 30.24 853 25.19 1.3 34.4 85 -1 30.2 -90.2 -3.551
07:30 1024 30.24 853 25.19 1.4 34.5 84 -1 30.2 -90.1 -3.547
07:31 1024 30.24 853 25.19 1.4 34.4 84 -1.1 30 -90.1 -3.547
07:32 1024 30.24 853 25.19 1.2 34.2 84 -1.1 30 -90.1 -3.547
07:33 1024 30.24 853 25.19 1.2 34.2 85 -1 30.1 -90.1 -3.547
07:34 1024 30.24 853 25.19 1.3 34.4 85 -0.9 30.3 -90.1 -3.547
07:35 1024 30.24 853 25.19 1.6 35 83 -0.9 30.4 -90.2 -3.551
07:36 1024 30.24 853 25.19 1.7 35.1 82 -1.1 30.1 -90.2 -3.551
07:37 1024 30.24 853 25.19 1.7 35 82 -1 30.1 -90.2 -3.551
07:38 1024 30.24 853 25.19 1.7 35.1 83 -0.9 30.4 -90.3 -3.555
07:39 1024 30.24 853 25.19 1.9 35.5 82 -0.9 30.5 -90.3 -3.555
07:40 1024 30.24 853 25.19 2.2 36 80 -0.8 30.6 -90.3 -3.555
07:41 1024 30.24 853 25.19 2.4 36.4 80 -0.7 30.8 -90.4 -3.559
07:42 1024 30.24 853 25.19 2.6 36.7 79 -0.6 30.9 -90.4 -3.559
07:43 1024 30.24 853 25.19 2.9 37.1 78 -0.6 30.9 -90.4 -3.559
07:44 1024 30.24 853 25.19 3 37.4 77 -0.5 31 -90.5 -3.563
07:45 1024 30.24 853 25.19 3 37.5 77 -0.5 31 -90.5 -3.563
07:46 1024 30.24 853 25.19 3.1 37.7 77 -0.6 31 -90.5 -3.563
07:47 1024 30.24 853 25.19 3.3 37.9 76 -0.5 31.1 -90.6 -3.567
07:48 1024 30.24 853 25.19 3.4 38.1 76 -0.4 31.2 -90.6 -3.567
07:49 1024 30.24 853 25.19 3.4 38.1 76 -0.4 31.3 -90.6 -3.567
07:50 1024 30.24 853 25.19 3.3 37.9 77 -0.3 31.4 -90.6 -3.567
07:51 1024 30.24 853 25.19 3.3 37.9 77 -0.3 31.5 -90.7 -3.571
07:52 1024 30.24 853 25.19 3.4 38.1 77 -0.3 31.5 -90.7 -3.571
07:53 1024 30.24 853 25.19 3.4 38.2 77 -0.2 31.6 -90.7 -3.571
07:54 1024 30.24 853 25.19 3.4 38.1 78 -0.1 31.8 -90.7 -3.571
07:55 1024 30.24 853 25.19 3.3 37.9 78 -0.1 31.8 -90.7 -3.571
07:56 1024 30.24 853 25.19 3.3 37.9 79 0 32 -90.7 -3.571
07:57 1024 30.24 853 25.19 3.3 37.9 78 -0.1 31.8 -90.7 -3.571
07:58 1024 30.24 853 25.19 3.6 38.5 76 -0.2 31.7 -90.7 -3.571
07:59 1024 30.24 853 25.19 4 39.1 75 -0 31.9 -90.8 -3.575
08:00 1024 30.24 853 25.19 4.3 39.7 74 0.1 32.2 -90.8 -3.575
08:01 1024 30.24 853 25.19 4.5 40.2 74 0.3 32.5 -90.8 -3.575
08:02 1024 30.24 853 25.19 4.7 40.5 74 0.5 32.9 -90.8 -3.575
08:03 1024 30.24 853 25.19 4.9 40.8 72 0.3 32.6 -90.8 -3.575
08:04 1024 30.24 853 25.19 5.1 41.3 71 0.4 32.7 -90.8 -3.575
08:05 1024 30.24 853 25.19 5.4 41.8 71 0.6 33.1 -90.8 -3.575
08:06 1024 30.24 853 25.19 5.7 42.2 71 0.8 33.4 -90.8 -3.575
08:07 1024 30.24 853 25.19 5.8 42.5 70 0.8 33.5 -90.8 -3.575
08:08 1024 30.24 853 25.19 6.1 42.9 69 0.8 33.5 -90.9 -3.579
08:09 1024 30.24 853 25.19 6.2 43.2 68 0.9 33.6 -90.9 -3.579
08:10 1024 30.24 853 25.19 6.4 43.6 68 0.9 33.6 -90.9 -3.579
08:11 1024 30.24 853 25.19 6.6 44 68 1.1 34.1 -90.9 -3.579
08:12 1024 30.24 853 25.19 6.8 44.2 68 1.2 34.2 -90.9 -3.579
08:13 1024 30.24 853 25.19 6.9 44.5 68 1.4 34.5 -90.9 -3.579
08:14 1024 30.24 853 25.19 7.1 44.7 70 1.9 35.4 -90.9 -3.579
08:15 1024 30.24 853 25.19 7.2 44.9 70 2.1 35.8 -90.9 -3.579
08:16 1024 30.24 853 25.19 7.2 44.9 70 2.1 35.7 -90.9 -3.579
08:17 1024 30.24 853 25.19 7.2 44.9 70 2.2 35.9 -90.9 -3.579
08:18 1024 30.24 853 25.19 7.3 45.1 70 2.1 35.8 -90.9 -3.579
08:19 1024 30.24 853 25.19 7.3 45.2 71 2.4 36.3 -90.9 -3.579
08:20 1024 30.24 853 25.19 7.4 45.4 70 2.4 36.2 -90.9 -3.579
08:21 1024 30.24 853 25.19 7.5 45.5 70 2.5 36.4 -90.8 -3.575
08:22 1024 30.24 853 25.19 7.5 45.6 71 2.6 36.7 -90.8 -3.575
08:23 1024 30.24 853 25.19 7.5 45.6 70 2.5 36.5 -90.8 -3.575
08:24 1024 30.24 853 25.19 7.5 45.6 70 2.5 36.5 -90.8 -3.575
08:25 1024 30.24 853 25.19 7.5 45.6 69 2.3 36.2 -90.8 -3.575
08:26 1023 30.21 853 25.19 7.6 45.6 70 2.4 36.4 -90.8 -3.575
08:27 1024 30.24 853 25.19 7.6 45.6 69 2.4 36.3 -90.8 -3.575
08:28 1023 30.21 853 25.19 7.6 45.8 68 2.1 35.8 -90.8 -3.575
08:29 1023 30.21 853 25.19 7.8 46 68 2.3 36.1 -90.8 -3.575
08:30 1024 30.24 853 25.19 7.9 46.3 67 2.3 36.1 -90.8 -3.575
08:31 1024 30.24 853 25.19 8.1 46.5 68 2.7 36.8 -90.7 -3.571
08:32 1024 30.24 853 25.19 8.2 46.8 66 2.2 36 -90.7 -3.571
08:33 1024 30.24 853 25.19 8.3 46.9 66 2.3 36.2 -90.7 -3.571
08:34 1023 30.21 853 25.19 8.4 47.1 66 2.5 36.5 -90.7 -3.571
08:35 1024 30.24 853 25.19 8.5 47.3 66 2.6 36.7 -90.7 -3.571
08:36 1023 30.21 853 25.19 8.6 47.4 67 2.8 37 -90.7 -3.571
08:37 1023 30.21 853 25.19 8.6 47.5 68 3 37.4 -90.7 -3.571
08:38 1023 30.21 853 25.19 8.7 47.7 67 3 37.3 -90.7 -3.571
08:39 1023 30.21 853 25.19 8.8 47.9 67 3 37.4 -90.7 -3.571
08:40 1023 30.21 853 25.19 8.9 48.1 67 3.2 37.7 -90.7 -3.571
08:41 1023 30.21 853 25.19 9.1 48.3 66 3.2 37.7 -90.7 -3.571
08:42 1023 30.21 853 25.19 9.2 48.6 66 3.2 37.8 -90.7 -3.571
08:43 1023 30.21 853 25.19 9.4 48.9 65 3.3 37.9 -90.7 -3.571
08:44 1023 30.21 853 25.19 9.6 49.2 64 3.2 37.8 -90.6 -3.567
08:45 1023 30.21 853 25.19 9.7 49.5 59 2.2 36 -90.6 -3.567
08:46 1023 30.21 853 25.19 9.8 49.7 58 2.1 35.7 -90.6 -3.567
08:47 1023 30.21 852 25.16 9.9 49.7 61 2.7 36.8 -90.6 -3.567
08:48 1023 30.21 852 25.16 9.9 49.8 59 2.3 36.1 -90.6 -3.567
08:49 1023 30.21 852 25.16 10 49.9 59 2.3 36.2 -90.6 -3.567
08:50 1023 30.21 852 25.16 10.1 50.1 61 2.9 37.3 -90.6 -3.567
08:51 1023 30.21 852 25.16 10.2 50.4 58 2.4 36.4 -90.6 -3.567
08:52 1023 30.21 852 25.16 10.3 50.5 59 2.6 36.7 -90.6 -3.567
08:53 1023 30.21 852 25.16 10.4 50.7 57 2.3 36.1 -90.6 -3.567
08:54 1023 30.21 852 25.16 10.4 50.8 57 2.3 36.1 -90.5 -3.563
08:55 1023 30.21 852 25.16 10.5 51 59 2.9 37.2 -90.5 -3.563
08:56 1023 30.21 852 25.16 10.7 51.2 60 3.2 37.8 -90.5 -3.563
08:57 1023 30.21 852 25.16 10.9 51.5 57 2.7 36.9 -90.5 -3.563
08:58 1023 30.21 852 25.16 11 51.8 54 2 35.7 -90.5 -3.563
08:59 1023 30.21 852 25.16 11.1 52 57 3 37.4 -90.5 -3.563
09:00 1023 30.21 852 25.16 11.3 52.3 54 2.4 36.3 -90.5 -3.563
09:01 1023 30.21 852 25.16 11.4 52.5 53 2.3 36.1 -90.5 -3.563
09:02 1023 30.21 852 25.16 11.5 52.6 53 2.3 36.1 -90.4 -3.559
09:03 1023 30.21 852 25.16 11.6 52.8 49 1.4 34.5 -90.4 -3.559
09:04 1023 30.21 852 25.16 11.7 53 53 2.4 36.4 -90.4 -3.559
09:05 1023 30.21 852 25.16 11.8 53.2 49 1.6 34.8 -90.4 -3.559
09:06 1023 30.21 852 25.16 11.8 53.3 49 1.6 34.9 -90.4 -3.559
09:07 1023 30.21 852 25.16 11.8 53.3 50 1.8 35.2 -90.4 -3.559
09:08 1023 30.21 852 25.16 11.9 53.4 51 2.1 35.8 -90.3 -3.555
09:09 1023 30.21 852 25.16 11.9 53.5 50 1.8 35.2 -90.3 -3.555
09:10 1023 30.21 852 25.16 12 53.6 49 1.6 35 -90.3 -3.555
09:11 1023 30.21 852 25.16 12 53.5 50 1.9 35.5 -90.3 -3.555
09:12 1023 30.21 852 25.16 12 53.6 48 1.2 34.2 -90.3 -3.555
09:13 1023 30.21 852 25.16 12.1 53.8 49 1.8 35.3 -90.3 -3.555
09:14 1023 30.21 852 25.16 12.2 53.9 48 1.6 34.9 -90.2 -3.551
09:15 1023 30.21 852 25.16 12.3 54.2 52 2.7 36.9 -90.2 -3.551
09:16 1023 30.21 852 25.16 12.5 54.5 48 1.8 35.2 -90.2 -3.551
09:17 1023 30.21 852 25.16 12.6 54.6 46 1.2 34.1 -90.2 -3.551
09:18 1023 30.21 852 25.16 12.7 54.8 48 1.9 35.4 -90.2 -3.551
09:19 1023 30.21 852 25.16 12.8 55 45 1.2 34.2 -90.2 -3.551
09:20 1023 30.21 852 25.16 12.9 55.3 44 1.2 34.1 -90.2 -3.551
09:21 1023 30.21 852 25.16 13 55.5 47 2 35.5 -90.1 -3.547
09:22 1023 30.21 852 25.16 13.3 55.9 44 1.3 34.4 -90.1 -3.547
09:23 1023 30.21 852 25.16 13.5 56.3 45 1.7 35.1 -90.1 -3.547
09:24 1023 30.21 852 25.16 13.7 56.6 41 0.8 33.5 -90 -3.543
09:25 1023 30.21 852 25.16 13.8 56.9 42 1.1 33.9 -90 -3.543
09:26 1023 30.21 852 25.16 14 57.1 41 1.1 34.1 -90 -3.543
09:27 1023 30.21 852 25.16 14.1 57.5 41 1.1 34 -90 -3.543
09:28 1023 30.21 852 25.16 14.4 57.8 42 1.5 34.8 -90 -3.543
09:29 1023 30.21 852 25.16 14.7 58.4 41 1.5 34.7 -90 -3.543
09:30 1023 30.21 852 25.16 14.8 58.6 40 1.4 34.6 -90 -3.543
09:31 1023 30.21 852 25.16 14.8 58.6 42 2.1 35.9 -89.9 -3.539
09:32 1023 30.21 852 25.16 14.8 58.6 44 2.6 36.7 -89.9 -3.539
09:33 1023 30.21 852 25.16 14.7 58.5 41 1.6 35 -89.9 -3.539
09:34 1023 30.21 852 25.16 14.7 58.5 41 1.6 34.8 -89.9 -3.539
09:35 1023 30.21 852 25.16 14.6 58.4 42 2 35.6 -89.8 -3.535
09:36 1023 30.21 852 25.16 14.6 58.3 45 2.9 37.1 -89.8 -3.535
09:37 1023 30.21 852 25.16 14.5 58.2 43 2.2 35.9 -89.8 -3.535
09:38 1023 30.21 852 25.16 14.5 58.2 46 3 37.4 -89.8 -3.535
09:39 1023 30.21 852 25.16 14.6 58.3 44 2.4 36.4 -89.8 -3.535
09:40 1023 30.21 852 25.16 14.7 58.4 41 1.7 35 -89.8 -3.535
09:41 1023 30.21 852 25.16 14.6 58.3 42 2 35.5 -89.8 -3.535
09:42 1023 30.21 852 25.16 14.6 58.4 43 2.2 35.9 -89.8 -3.535
09:43 1023 30.21 852 25.16 14.7 58.4 44 2.8 37 -89.7 -3.531
09:44 1023 30.21 852 25.16 14.8 58.6 41 1.7 35.1 -89.7 -3.531
09:45 1023 30.21 852 25.16 14.9 58.8 36 0.1 32.2 -89.6 -3.528
09:46 1023 30.21 852 25.16 15 58.9 39 1.2 34.1 -89.6 -3.528
09:47 1023 30.21 852 25.16 15 58.9 43 2.5 36.4 -89.6 -3.528
09:48 1023 30.21 852 25.16 15 59 43 2.7 36.9 -89.6 -3.528
09:49 1023 30.21 853 25.19 15 59 44 2.8 37.1 -89.6 -3.528
09:50 1023 30.21 853 25.19 15.1 59.1 44 3 37.4 -89.5 -3.524
09:51 1023 30.21 852 25.16 15.1 59.1 44 3.1 37.5 -89.5 -3.524
09:52 1023 30.21 852 25.16 15.1 59.1 44 3 37.4 -89.5 -3.524
09:53 1023 30.21 852 25.16 15.1 59.2 43 2.9 37.2 -89.5 -3.524
09:54 1023 30.21 852 25.16 15.2 59.3 44 3.2 37.7 -89.5 -3.524
09:55 1023 30.21 852 25.16 15.2 59.3 44 3 37.3 -89.5 -3.524
09:56 1023 30.21 852 25.16 15.2 59.4 47 4 39.1 -89.5 -3.524
09:57 1023 30.21 852 25.16 15.4 59.6 44 3.4 38.2 -89.4 -3.52
09:58 1023 30.21 852 25.16 15.3 59.6 44 3.2 37.8 -89.4 -3.52
09:59 1023 30.21 852 25.16 15.3 59.6 42 2.6 36.7 -89.4 -3.52
10:00 1023 30.21 852 25.16 15.4 59.7 45 3.5 38.2 -89.4 -3.52
10:01 1023 30.21 852 25.16 15.4 59.7 43 3 37.5 -89.3 -3.516
10:02 1023 30.21 852 25.16 15.5 59.8 46 3.9 39 -89.3 -3.516
10:03 1023 30.21 852 25.16 15.6 60.1 39 1.9 35.5 -89.3 -3.516
10:04 1023 30.21 853 25.19 15.7 60.3 41 2.6 36.6 -89.3 -3.516
10:05 1023 30.21 853 25.19 15.8 60.4 43 3.4 38.1 -89.3 -3.516
10:06 1023 30.21 853 25.19 15.8 60.4 40 2.5 36.4 -89.3 -3.516
10:07 1023 30.21 853 25.19 15.7 60.3 43 3.3 38 -89.3 -3.516
10:08 1023 30.21 853 25.19 15.7 60.3 41 2.5 36.5 -89.2 -3.512
10:09 1023 30.21 853 25.19 15.8 60.4 38 1.5 34.7 -89.2 -3.512
10:10 1023 30.21 853 25.19 15.7 60.3 42 2.9 37.2 -89.1 -3.508
10:11 1023 30.21 853 25.19 15.8 60.4 41 2.7 36.9 -89.1 -3.508
10:12 1023 30.21 853 25.19 15.8 60.4 41 2.8 37 -89.1 -3.508
10:13 1023 30.21 853 25.19 15.8 60.4 38 1.7 35 -89.1 -3.508
10:14 1023 30.21 853 25.19 15.9 60.5 37 1.3 34.4 -89.1 -3.508
10:15 1023 30.21 853 25.19 15.9 60.6 38 1.6 35 -89.1 -3.508
10:16 1023 30.21 853 25.19 15.9 60.7 36 1.1 33.9 -89 -3.504
10:17 1023 30.21 853 25.19 16 60.7 36 1.1 34 -89 -3.504
10:18 1023 30.21 853 25.19 15.9 60.7 37 1.2 34.2 -89 -3.504
10:19 1023 30.21 853 25.19 15.9 60.6 40 2.3 36.1 -88.9 -3.5
10:20 1023 30.21 853 25.19 16 60.8 37 1.4 34.5 -88.9 -3.5
10:21 1023 30.21 853 25.19 16.1 60.9 36 0.9 33.7 -88.9 -3.5
10:22 1023 30.21 853 25.19 16.1 61 40 2.5 36.4 -88.9 -3.5
10:23 1023 30.21 853 25.19 16.1 61 36 1.1 34 -88.9 -3.5
10:24 1023 30.21 853 25.19 16.1 60.9 39 2.3 36.1 -88.9 -3.5
10:25 1023 30.21 853 25.19 16.2 61.1 38 1.9 35.5 -88.8 -3.496
10:26 1023 30.21 853 25.19 16.2 61.2 38 1.9 35.5 -88.8 -3.496
10:27 1023 30.21 853 25.19 16.2 61.1 40 2.6 36.6 -88.8 -3.496
10:28 1023 30.21 853 25.19 16.1 61.1 39 2.2 36 -88.8 -3.496
10:29 1023 30.21 853 25.19 16 60.9 38 1.9 35.4 -88.7 -3.492
10:30 1023 30.21 853 25.19 16 60.8 39 2 35.7 -88.7 -3.492
10:31 1023 30.21 853 25.19 16 60.8 38 2 35.5 -88.7 -3.492
10:32 1023 30.21 853 25.19 15.8 60.5 41 2.9 37.1 -88.6 -3.488
10:33 1023 30.21 853 25.19 15.7 60.2 40 2.1 35.8 -88.6 -3.488
10:34 1023 30.21 853 25.19 15.7 60.2 41 2.7 36.8 -88.6 -3.488
10:35 1023 30.21 853 25.19 15.6 60.2 39 1.8 35.3 -88.6 -3.488
10:36 1023 30.21 853 25.19 15.6 60.1 39 1.9 35.4 -88.6 -3.488
10:37 1023 30.21 852 25.16 15.6 60.1 39 1.9 35.5 -88.6 -3.488
10:38 1023 30.21 852 25.16 15.8 60.5 39 2.1 35.8 -88.5 -3.484
10:39 1023 30.21 853 25.19 16.1 60.9 39 2.1 35.9 -88.5 -3.484
10:40 1023 30.21 852 25.16 16.2 61.2 40 2.8 37 -88.5 -3.484
10:41 1023 30.21 852 25.16 16.2 61.1 39 2.4 36.2 -88.5 -3.484
10:42 1023 30.21 852 25.16 16.1 60.9 37 1.5 34.7 -88.5 -3.484
10:43 1023 30.21 852 25.16 16 60.7 38 1.6 34.8 -88.5 -3.484
10:44 1023 30.21 852 25.16 16.1 60.9 36 1.2 34.2 -88.4 -3.48
10:45 1023 30.21 852 25.16 16.3 61.3 38 2 35.5 -88.4 -3.48
10:46 1023 30.21 852 25.16 16.3 61.4 38 2.1 35.7 -88.4 -3.48
10:47 1023 30.21 852 25.16 16.3 61.3 37 1.6 34.9 -88.4 -3.48
10:48 1023 30.21 852 25.16 16.2 61.1 39 2.2 36 -88.3 -3.476
10:49 1023 30.21 852 25.16 16.3 61.4 37 1.7 35 -88.3 -3.476
10:50 1023 30.21 852 25.16 16.4 61.5 38 2.1 35.7 -88.3 -3.476
10:51 1023 30.21 852 25.16 16.5 61.8 35 1.3 34.3 -88.3 -3.476
10:52 1023 30.21 852 25.16 16.7 62 38 2.2 36 -88.2 -3.472
10:53 1023 30.21 852 25.16 16.8 62.2 36 1.7 35 -88.2 -3.472
10:54 1023 30.21 852 25.16 16.8 62.3 36 1.6 34.9 -88.2 -3.472
10:55 1023 30.21 852 25.16 16.7 62.1 37 2.1 35.8 -88.2 -3.472
10:56 1023 30.21 852 25.16 16.8 62.2 39 2.7 36.9 -88.2 -3.472
10:57 1023 30.21 852 25.16 16.7 62.1 37 2 35.7 -88.1 -3.469
10:58 1023 30.21 852 25.16 16.7 62 37 2.2 35.9 -88.1 -3.469
10:59 1023 30.21 852 25.16 16.9 62.4 40 3.2 37.8 -88.1 -3.469
11:00 1023 30.21 852 25.16 17.2 62.9 36 2 35.6 -88 -3.465
11:01 1023 30.21 852 25.16 17.1 62.8 38 2.6 36.7 -88 -3.465
11:02 1023 30.21 852 25.16 17 62.7 39 3.1 37.6 -88 -3.465
11:03 1023 30.21 852 25.16 16.9 62.4 37 2.3 36.2 -88 -3.465
11:04 1023 30.21 852 25.16 16.8 62.3 41 3.7 38.6 -88 -3.465
11:05 1023 30.21 852 25.16 16.9 62.5 38 2.8 37 -87.9 -3.461
11:06 1023 30.21 852 25.16 17.1 62.8 38 2.8 37 -87.9 -3.461
11:07 1023 30.21 852 25.16 17.2 63 35 1.7 35.1 -87.9 -3.461
11:08 1023 30.21 852 25.16 17.5 63.4 34 1.7 35.1 -87.9 -3.461
11:09 1023 30.21 852 25.16 17.6 63.7 35 2.2 35.9 -87.8 -3.457
11:10 1023 30.21 852 25.16 17.8 64 36 2.5 36.5 -87.8 -3.457
11:11 1023 30.21 852 25.16 18 64.3 34 2 35.6 -87.8 -3.457
11:12 1023 30.21 852 25.16 18 64.5 35 2.6 36.7 -87.7 -3.453
11:13 1023 30.21 852 25.16 18 64.4 36 2.7 36.9 -87.7 -3.453
11:14 1023 30.21 852 25.16 17.8 64.1 35 2.5 36.5 -87.7 -3.453
11:15 1023 30.21 852 25.16 17.6 63.6 35 2.1 35.8 -87.7 -3.453
11:16 1023 30.21 852 25.16 17.4 63.3 37 2.6 36.8 -87.7 -3.453
11:17 1023 30.21 852 25.16 17.4 63.4 35 2 35.6 -87.7 -3.453
11:18 1023 30.21 852 25.16 17.5 63.6 38 3 37.4 -87.6 -3.449
11:19 1023 30.21 852 25.16 17.6 63.7 35 2.3 36.1 -87.6 -3.449
11:20 1023 30.21 852 25.16 17.6 63.6 36 2.4 36.3 -87.6 -3.449
11:21 1023 30.21 852 25.16 17.7 63.8 36 2.4 36.3 -87.6 -3.449
11:22 1023 30.21 852 25.16 17.7 63.9 36 2.4 36.4 -87.5 -3.445
11:23 1023 30.21 852 25.16 17.8 64 37 3 37.5 -87.5 -3.445
11:24 1023 30.21 852 25.16 17.9 64.3 35 2.3 36.1 -87.5 -3.445
11:25 1023 30.21 852 25.16 17.8 64 36 2.5 36.5 -87.5 -3.445
11:26 1023 30.21 852 25.16 17.8 64 36 2.7 36.9 -87.4 -3.441
11:27 1023 30.21 852 25.16 17.9 64.2 35 2.5 36.5 -87.4 -3.441
11:28 1023 30.21 852 25.16 18 64.3 35 2.6 36.7 -87.4 -3.441
11:29 1023 30.21 852 25.16 18.1 64.6 36 2.9 37.2 -87.3 -3.437
11:30 1023 30.21 852 25.16 18.2 64.8 35 2.5 36.4 -87.3 -3.437
11:31 1023 30.21 852 25.16 18.3 64.9 35 2.6 36.6 -87.3 -3.437
11:32 1023 30.21 852 25.16 18.3 65 37 3.4 38.1 -87.2 -3.433
11:33 1022 30.18 852 25.16 18.5 65.3 35 3.1 37.6 -87.2 -3.433
11:34 1022 30.18 852 25.16 18.5 65.4 34 2.4 36.4 -87.2 -3.433
11:35 1022 30.18 852 25.16 18.7 65.6 37 3.8 38.9 -87.2 -3.433
11:36 1022 30.18 852 25.16 18.7 65.7 32 2 35.6 -87.1 -3.429
11:37 1022 30.18 852 25.16 18.8 65.8 32 2.1 35.7 -87.1 -3.429
11:38 1022 30.18 852 25.16 18.9 66 34 2.7 36.9 -87.1 -3.429
11:39 1022 30.18 852 25.16 19 66.2 32 2.2 35.9 -87 -3.425
11:40 1022 30.18 852 25.16 19.2 66.5 32 2.4 36.3 -87 -3.425
11:41 1022 30.18 852 25.16 19.3 66.7 31 1.9 35.4 -87 -3.425
11:42 1022 30.18 852 25.16 19.3 66.8 31 2 35.5 -87 -3.425
11:43 1022 30.18 852 25.16 19.2 66.6 32 2.1 35.7 -86.9 -3.421
11:44 1022 30.18 852 25.16 19.3 66.8 31 2 35.6 -86.9 -3.421
11:45 1022 30.18 852 25.16 19.4 67 31 2.1 35.7 -86.8 -3.417
11:46 1022 30.18 852 25.16 19.5 67.1 32 2.6 36.7 -86.8 -3.417
11:47 1022 30.18 852 25.16 19.6 67.3 31 2.2 35.9 -86.8 -3.417
11:48 1022 30.18 852 25.16 19.6 67.3 31 2.3 36.1 -86.7 -3.413
11:49 1022 30.18 852 25.16 19.6 67.2 31 2.4 36.2 -86.7 -3.413
11:50 1022 30.18 851 25.13 19.6 67.2 31 2.3 36.1 -86.7 -3.413
11:51 1022 30.18 851 25.13 19.7 67.5 31 2.2 36 -86.7 -3.413
11:52 1022 30.18 851 25.13 19.8 67.7 31 2.4 36.3 -86.6 -3.409
11:53 1022 30.18 851 25.13 19.9 67.9 32 2.9 37.3 -86.6 -3.409
11:54 1022 30.18 851 25.13 20.1 68.2 32 2.8 37.1 -86.6 -3.409
11:55 1022 30.18 851 25.13 20.2 68.4 32 3.3 37.9 -86.5 -3.406
11:56 1022 30.18 851 25.13 20.3 68.6 31 2.6 36.7 -86.5 -3.406
11:57 1022 30.18 851 25.13 20.4 68.6 31 3.1 37.5 -86.5 -3.406
11:58 1022 30.18 851 25.13 20.3 68.5 31 2.8 37 -86.5 -3.406
11:59 1022 30.18 851 25.13 20.3 68.5 31 2.9 37.1 -86.4 -3.402
12:00 1022 30.18 851 25.13 20.4 68.7 33 3.8 38.8 -86.4 -3.402
12:01 1022 30.18 851 25.13 20.5 68.9 30 2.7 36.8 -86.3 -3.398
12:02 1022 30.18 851 25.13 20.5 68.9 31 2.8 37.1 -86.3 -3.398
12:03 1022 30.18 851 25.13 20.6 69.1 30 2.7 36.8 -86.3 -3.398
12:04 1022 30.18 851 25.13 20.7 69.2 30 2.6 36.7 -86.2 -3.394
12:05 1022 30.18 851 25.13 20.7 69.2 29 2.2 35.9 -86.2 -3.394
12:06 1022 30.18 851 25.13 20.8 69.5 29 2.2 36 -86.1 -3.39
12:07 1022 30.18 851 25.13 21 69.8 30 2.9 37.2 -86.1 -3.39
12:08 1022 30.18 851 25.13 21.2 70.1 29 2.6 36.7 -86.1 -3.39
12:09 1022 30.18 851 25.13 21.3 70.3 29 2.7 36.9 -86 -3.386
12:10 1022 30.18 851 25.13 21.3 70.3 28 2.4 36.3 -86 -3.386
12:11 1022 30.18 851 25.13 21.3 70.3 29 2.8 37.1 -86 -3.386
12:12 1022 30.18 851 25.13 21.3 70.4 28 2.3 36.2 -86 -3.386
12:13 1022 30.18 851 25.13 21.3 70.3 29 2.9 37.2 -85.9 -3.382
12:14 1022 30.18 851 25.13 21.3 70.4 29 2.8 37.1 -85.9 -3.382
12:15 1022 30.18 851 25.13 21.5 70.6 29 2.9 37.2 -85.8 -3.378
12:16 1022 30.18 851 25.13 21.4 70.5 28 2.2 35.9 -85.8 -3.378
12:17 1022 30.18 851 25.13 21.3 70.4 29 2.6 36.6 -85.8 -3.378
12:18 1022 30.18 851 25.13 21.4 70.5 28 2.3 36.1 -85.7 -3.374
12:19 1022 30.18 851 25.13 21.5 70.7 29 2.7 36.8 -85.7 -3.374
12:20 1022 30.18 851 25.13 21.6 70.8 29 3 37.3 -85.6 -3.37
12:21 1022 30.18 851 25.13 21.7 71.1 28 2.8 37 -85.6 -3.37
12:22 1022 30.18 851 25.13 21.7 71.1 27 2.1 35.8 -85.6 -3.37
12:23 1022 30.18 851 25.13 21.7 71.1 28 2.4 36.3 -85.5 -3.366
12:24 1022 30.18 851 25.13 21.8 71.2 29 3.2 37.8 -85.5 -3.366
12:25 1022 30.18 851 25.13 21.7 71 28 2.6 36.7 -85.4 -3.362
12:26 1022 30.18 851 25.13 21.7 71 27 2.3 36.1 -85.4 -3.362
12:27 1022 30.18 851 25.13 21.8 71.3 29 3 37.4 -85.4 -3.362
12:28 1022 30.18 851 25.13 21.8 71.3 29 3.2 37.8 -85.3 -3.358
12:29 1022 30.18 851 25.13 21.8 71.3 27 2.4 36.4 -85.3 -3.358
12:30 1022 30.18 851 25.13 21.9 71.3 28 2.7 36.8 -85.2 -3.354
12:31 1022 30.18 851 25.13 21.9 71.4 28 2.6 36.7 -85.2 -3.354
12:32 1022 30.18 851 25.13 21.8 71.3 27 2.4 36.3 -85.2 -3.354
12:33 1022 30.18 851 25.13 21.9 71.4 28 2.6 36.7 -85.2 -3.354
12:34 1022 30.18 851 25.13 22 71.5 28 2.7 36.9 -85.1 -3.35
12:35 1022 30.18 851 25.13 21.9 71.5 28 2.8 37.1 -85.1 -3.35
12:36 1022 30.18 851 25.13 21.9 71.4 27 2.1 35.7 -85 -3.346
12:37 1022 30.18 851 25.13 21.9 71.4 28 2.9 37.2 -85 -3.346
12:38 1022 30.18 851 25.13 21.9 71.4 29 3.3 38 -85 -3.346
12:39 1022 30.18 851 25.13 22 71.6 27 2.4 36.4 -84.9 -3.343
12:40 1022 30.18 851 25.13 22.1 71.7 28 2.9 37.3 -84.9 -3.343
12:41 1022 30.18 851 25.13 22 71.5 27 2.3 36.2 -84.9 -3.343
12:42 1022 30.18 851 25.13 21.8 71.2 28 2.5 36.6 -84.9 -3.343
12:43 1022 30.18 851 25.13 21.7 71.1 27 1.9 35.4 -84.8 -3.339
12:44 1022 30.18 851 25.13 21.7 71 28 2.5 36.5 -84.8 -3.339
12:45 1022 30.18 851 25.13 21.5 70.7 30 3.3 37.9 -84.8 -3.339
12:46 1022 30.18 851 25.13 21.6 71 28 2.4 36.3 -84.8 -3.339
12:47 1022 30.18 851 25.13 21.9 71.4 27 2.2 36 -84.7 -3.335
12:48 1022 30.18 851 25.13 21.9 71.4 26 1.9 35.3 -84.7 -3.335
12:49 1022 30.18 851 25.13 21.9 71.4 28 2.7 36.8 -84.7 -3.335
12:50 1022 30.18 851 25.13 21.9 71.4 26 1.8 35.2 -84.6 -3.331
12:51 1022 30.18 851 25.13 21.9 71.4 27 2.5 36.5 -84.6 -3.331
12:52 1022 30.18 851 25.13 21.9 71.4 26 1.9 35.4 -84.6 -3.331
12:53 1022 30.18 851 25.13 22 71.6 27 2.2 36 -84.6 -3.331
12:54 1022 30.18 851 25.13 22 71.5 27 2.2 36 -84.5 -3.327
12:55 1022 30.18 851 25.13 21.9 71.4 26 2 35.6 -84.5 -3.327
12:56 1022 30.18 851 25.13 22 71.5 27 2.4 36.4 -84.5 -3.327
12:57 1022 30.18 851 25.13 22.2 72 28 3.1 37.5 -84.5 -3.327
12:58 1022 30.18 851 25.13 22.6 72.6 27 3.1 37.6 -84.4 -3.323
12:59 1022 30.18 851 25.13 22.8 73.1 26 2.8 37 -84.4 -3.323
13:00 1022 30.18 851 25.13 22.9 73.2 24 1.3 34.3 -84.4 -3.323
13:01 1022 30.18 851 25.13 22.9 73.2 24 1.6 34.9 -84.4 -3.323
13:02 1022 30.18 851 25.13 22.9 73.2 24 1.4 34.6 -84.4 -3.323
13:03 1022 30.18 851 25.13 22.9 73.2 25 1.8 35.2 -84.3 -3.319
13:04 1022 30.18 851 25.13 22.9 73.1 27 3.2 37.8 -84.3 -3.319
13:05 1022 30.18 851 25.13 22.9 73.2 25 2.1 35.7 -84.3 -3.319
13:06 1022 30.18 851 25.13 23 73.4 26 2.6 36.7 -84.3 -3.319
13:07 1022 30.18 851 25.13 23.1 73.5 25 2.1 35.8 -84.2 -3.315
13:08 1022 30.18 851 25.13 23 73.3 27 3.3 37.9 -84.2 -3.315
13:09 1022 30.18 851 25.13 23 73.3 25 1.9 35.4 -84.2 -3.315
13:10 1022 30.18 851 25.13 23.1 73.6 25 2.1 35.8 -84.1 -3.311
13:11 1022 30.18 851 25.13 23.3 73.9 24 2 35.5 -84.1 -3.311
13:12 1022 30.18 851 25.13 23.4 74.1 24 1.9 35.4 -84.1 -3.311
13:13 1022 30.18 851 25.13 23.5 74.2 23 1.6 35 -84 -3.307
13:14 1022 30.18 851 25.13 23.5 74.4 24 1.7 35.1 -84 -3.307
13:15 1022 30.18 851 25.13 23.5 74.2 24 2.1 35.7 -84 -3.307
13:16 1022 30.18 851 25.13 23.5 74.4 26 2.9 37.2 -84 -3.307
13:17 1022 30.18 851 25.13 23.6 74.5 24 1.8 35.3 -84 -3.307
13:18 1022 30.18 851 25.13 23.6 74.5 24 2.1 35.8 -83.9 -3.303
13:19 1022 30.18 851 25.13 23.7 74.7 25 3 37.5 -83.9 -3.303
13:20 1022 30.18 851 25.13 24 75.1 21 0.8 33.4 -83.8 -3.299
13:21 1022 30.18 851 25.13 24 75.1 23 1.9 35.4 -83.8 -3.299
13:22 1022 30.18 851 25.13 23.9 75 22 1.4 34.6 -83.8 -3.299
13:23 1022 30.18 851 25.13 23.7 74.7 25 2.5 36.5 -83.8 -3.299
13:24 1022 30.18 851 25.13 23.8 74.9 22 1.3 34.3 -83.7 -3.295
13:25 1022 30.18 851 25.13 23.8 74.9 23 1.9 35.4 -83.7 -3.295
13:26 1022 30.18 851 25.13 23.9 75 22 1.3 34.3 -83.6 -3.291
13:27 1022 30.18 851 25.13 23.9 74.9 24 2.1 35.8 -83.6 -3.291
13:28 1022 30.18 851 25.13 23.9 74.9 25 3.1 37.5 -83.6 -3.291
13:29 1022 30.18 851 25.13 23.9 75.1 23 1.7 35 -83.5 -3.287
13:30 1022 30.18 851 25.13 24 75.2 23 2 35.7 -83.5 -3.287
13:31 1022 30.18 851 25.13 24.1 75.3 23 1.8 35.2 -83.5 -3.287
13:32 1022 30.18 851 25.13 24.2 75.5 22 1.6 34.9 -83.4 -3.283
13:33 1022 30.18 851 25.13 24.2 75.5 23 2.2 36 -83.4 -3.283
13:34 1022 30.18 851 25.13 24.2 75.6 22 1.5 34.7 -83.4 -3.283
13:35 1022 30.18 851 25.13 24.2 75.6 22 1.4 34.4 -83.4 -3.283
13:36 1022 30.18 851 25.13 24.3 75.7 21 0.8 33.5 -83.3 -3.28
13:37 1021 30.15 851 25.13 24.4 75.9 20 0.2 32.3 -83.3 -3.28
13:38 1022 30.18 851 25.13 24.5 76.1 21 0.7 33.3 -83.2 -3.276
13:39 1021 30.15 851 25.13 24.7 76.4 21 1 33.8 -83.2 -3.276
13:40 1021 30.15 851 25.13 24.7 76.5 20 0.7 33.3 -83.1 -3.272
13:41 1021 30.15 851 25.13 24.8 76.6 20 0.8 33.4 -83.1 -3.272
13:42 1021 30.15 851 25.13 24.9 76.8 20 0.8 33.4 -83.1 -3.272
13:43 1021 30.15 851 25.13 25.1 77.2 22 2.4 36.3 -83 -3.268
13:44 1021 30.15 851 25.13 25.3 77.6 20 1.3 34.4 -83 -3.268
13:45 1021 30.15 851 25.13 25.3 77.6 20 1 33.8 -82.9 -3.264
13:46 1021 30.15 851 25.13 25.5 77.8 20 1.3 34.3 -82.9 -3.264
13:47 1021 30.15 851 25.13 25.7 78.3 21 1.9 35.4 -82.8 -3.26
13:48 1021 30.15 850 25.1 25.8 78.4 20 1.5 34.7 -82.8 -3.26
13:49 1021 30.15 850 25.1 25.6 78 21 1.6 34.9 -82.8 -3.26
13:50 1021 30.15 850 25.1 25.4 77.6 20 1.2 34.2 -82.8 -3.26
13:51 1021 30.15 850 25.1 25.3 77.5 21 1.7 35 -82.7 -3.256
13:52 1021 30.15 850 25.1 25.3 77.6 20 1.2 34.2 -82.7 -3.256
13:53 1021 30.15 850 25.1 25.4 77.8 20 0.9 33.6 -82.6 -3.252
13:54 1021 30.15 850 25.1 25.5 77.9 21 1.8 35.3 -82.6 -3.252
13:55 1021 30.15 850 25.1 25.6 78.1 22 2.8 37.1 -82.5 -3.248
13:56 1021 30.15 850 25.1 25.6 78.2 20 1.4 34.5 -82.5 -3.248
13:57 1021 30.15 850 25.1 25.6 78.2 20 1.5 34.6 -82.5 -3.248
13:58 1021 30.15 850 25.1 25.7 78.3 20 1.3 34.3 -82.4 -3.244
13:59 1021 30.15 850 25.1 25.8 78.5 22 2.9 37.2 -82.3 -3.24
14:00 1021 30.15 850 25.1 25.9 78.6 23 3.5 38.3 -82.3 -3.24
14:01 1021 30.15 850 25.1 25.9 78.5 20 1.8 35.2 -82.2 -3.236
14:02 1021 30.15 850 25.1 25.9 78.5 20 1.7 35.1 -82.2 -3.236
14:03 1021 30.15 850 25.1 25.9 78.6 21 2 35.6 -82.1 -3.232
14:04 1021 30.15 850 25.1 26 78.9 21 2.1 35.9 -82.1 -3.232
14:05 1021 30.15 850 25.1 26 78.8 23 3.6 38.5 -82 -3.228
14:06 1021 30.15 850 25.1 25.9 78.6 20 1.6 34.9 -82 -3.228
14:07 1021 30.15 850 25.1 25.8 78.4 21 2.3 36.2 -81.9 -3.224
14:08 1021 30.15 850 25.1 25.8 78.4 21 2.3 36.1 -81.8 -3.22
14:09 1021 30.15 850 25.1 25.8 78.5 21 2 35.6 -81.8 -3.22
14:10 1021 30.15 850 25.1 26.1 78.9 22 2.8 37 -81.7 -3.217
14:11 1021 30.15 850 25.1 26.3 79.4 20 1.5 34.7 -81.6 -3.213
14:12 1021 30.15 850 25.1 26.3 79.4 20 1.5 34.8 -81.5 -3.209
14:13 1021 30.15 850 25.1 26.3 79.4 20 2.1 35.7 -81.5 -3.209
14:14 1021 30.15 850 25.1 26.3 79.4 20 2.1 35.8 -81.4 -3.205
14:15 1021 30.15 850 25.1 26.4 79.5 20 2.1 35.7 -81.3 -3.201
14:16 1021 30.15 850 25.1 26.4 79.5 20 2.2 36 -81.3 -3.201
14:17 1021 30.15 850 25.1 26.4 79.4 22 3.3 37.9 -81.2 -3.197
14:18 1021 30.15 850 25.1 26.3 79.4 21 2.5 36.5 -81.1 -3.193
14:19 1021 30.15 850 25.1 26.3 79.4 22 3.5 38.3 -81.1 -3.193
14:20 1021 30.15 850 25.1 26.3 79.3 21 2.2 35.9 -81 -3.189
14:21 1021 30.15 850 25.1 26.2 79.1 21 2.5 36.5 -81 -3.189
14:22 1021 30.15 850 25.1 26.1 78.9 24 4.3 39.7 -80.9 -3.185
14:23 1021 30.15 850 25.1 26 78.8 22 3.1 37.6 -80.9 -3.185
14:24 1021 30.15 850 25.1 26 78.8 21 2.4 36.3 -80.8 -3.181
14:25 1021 30.15 850 25.1 26 78.7 22 3.2 37.7 -80.8 -3.181
14:26 1021 30.15 850 25.1 25.9 78.5 23 3.5 38.3 -80.7 -3.177
14:27 1021 30.15 850 25.1 25.8 78.4 23 3.3 38 -80.7 -3.177
14:28 1021 30.15 850 25.1 25.7 78.2 26 5.2 41.4 -80.7 -3.177
14:29 1021 30.15 850 25.1 25.6 78.1 24 3.6 38.4 -80.7 -3.177
14:30 1021 30.15 850 25.1 25.5 77.8 25 4.1 39.4 -80.6 -3.173
14:31 1021 30.15 850 25.1 25.4 77.7 24 3.4 38.1 -80.6 -3.173
14:32 1021 30.15 850 25.1 25.5 77.8 24 3.7 38.6 -80.6 -3.173
14:33 1021 30.15 850 25.1 25.5 77.9 24 3.9 39.1 -80.6 -3.173
14:34 1021 30.15 850 25.1 25.6 78.1 24 4 39.2 -80.6 -3.173
14:35 1021 30.15 850 25.1 25.7 78.3 25 4.7 40.5 -80.5 -3.169
14:36 1021 30.15 850 25.1 25.9 78.6 22 2.8 37 -80.5 -3.169
14:37 1021 30.15 850 25.1 26 78.7 22 2.6 36.7 -80.5 -3.169
14:38 1021 30.15 850 25.1 26 78.9 21 2.4 36.2 -80.5 -3.169
14:39 1021 30.15 850 25.1 26.1 79 22 2.8 37 -80.5 -3.169
14:40 1021 30.15 850 25.1 26.2 79.1 22 3.3 37.9 -80.5 -3.169
14:41 1021 30.15 850 25.1 26.2 79.1 23 3.7 38.6 -80.5 -3.169
14:42 1021 30.15 850 25.1 26.2 79.2 20 2 35.6 -80.5 -3.169
14:43 1021 30.15 850 25.1 26.3 79.3 21 2.5 36.4 -80.5 -3.169
14:44 1020 30.12 850 25.1 26.3 79.3 23 4 39.3 -80.5 -3.169
14:45 1020 30.12 850 25.1 26.3 79.4 23 4 39.2 -80.5 -3.169
14:46 1020 30.12 850 25.1 26.3 79.3 21 2.6 36.7 -80.5 -3.169
14:47 1020 30.12 850 25.1 26.2 79.1 22 3.2 37.8 -80.5 -3.169
14:48 1020 30.12 850 25.1 26.2 79.1 22 3.2 37.8 -80.5 -3.169
14:49 1020 30.12 850 25.1 26.2 79.2 24 4.5 40.1 -80.5 -3.169
14:50 1020 30.12 850 25.1 26.2 79.2 24 4 39.3 -80.5 -3.169
14:51 1020 30.12 850 25.1 26.2 79.1 24 4.5 40 -80.5 -3.169
14:52 1020 30.12 850 25.1 26.1 78.9 23 3.5 38.3 -80.5 -3.169
14:53 1020 30.12 850 25.1 26 78.9 22 3.1 37.7 -80.5 -3.169
14:54 1020 30.12 850 25.1 26 78.8 23 3.6 38.6 -80.5 -3.169
14:55 1020 30.12 850 25.1 26 78.8 23 3.7 38.7 -80.5 -3.169
14:56 1020 30.12 850 25.1 26 78.9 23 3.7 38.7 -80.4 -3.165
14:57 1020 30.12 850 25.1 26.1 79 22 3.1 37.5 -80.4 -3.165
14:58 1020 30.12 849 25.07 26.2 79.2 22 3.2 37.7 -80.4 -3.165
14:59 1020 30.12 849 25.07 26.3 79.3 22 3.1 37.5 -80.4 -3.165
15:00 1020 30.12 849 25.07 26.4 79.5 21 2.8 37.1 -80.4 -3.165
15:01 1020 30.12 849 25.07 26.5 79.6 20 1.6 34.9 -80.4 -3.165
15:02 1020 30.12 849 25.07 26.5 79.7 19 1.6 34.9 -80.4 -3.165
15:03 1020 30.12 849 25.07 26.5 79.8 20 2 35.5 -80.3 -3.161
15:04 1020 30.12 849 25.07 26.6 79.9 19 1.7 35 -80.3 -3.161
15:05 1020 30.12 849 25.07 26.6 79.9 20 2.1 35.7 -80.3 -3.161
15:06 1020 30.12 849 25.07 26.6 79.9 20 2.3 36.2 -80.3 -3.161
15:07 1020 30.12 849 25.07 26.7 80 20 2.5 36.5 -80.3 -3.161
15:08 1020 30.12 849 25.07 26.7 80 20 2.4 36.3 -80.3 -3.161
15:09 1020 30.12 849 25.07 26.6 79.9 19 1.7 35.1 -80.2 -3.157
15:10 1020 30.12 849 25.07 26.6 79.8 22 3.2 37.7 -80.2 -3.157
15:11 1020 30.12 849 25.07 26.6 79.9 22 3.5 38.3 -80.1 -3.154
15:12 1020 30.12 849 25.07 26.6 79.8 22 3.3 38 -80.1 -3.154
15:13 1020 30.12 849 25.07 26.4 79.6 19 1.5 34.7 -80 -3.15
15:14 1020 30.12 849 25.07 26.3 79.3 22 3 37.4 -80 -3.15
15:15 1020 30.12 849 25.07 26.2 79.1 21 2.6 36.6 -80 -3.15
15:16 1020 30.12 849 25.07 26.1 78.9 20 1.9 35.4 -80 -3.15
15:17 1020 30.12 849 25.07 26 78.8 22 2.9 37.2 -80 -3.15
15:18 1020 30.12 849 25.07 26 78.8 22 2.9 37.2 -79.9 -3.146
15:19 1020 30.12 849 25.07 26 78.7 23 3.6 38.5 -79.9 -3.146
15:20 1020 30.12 849 25.07 26.1 78.9 22 2.7 36.8 -79.8 -3.142
15:21 1020 30.12 849 25.07 26.1 79 22 3.3 37.9 -79.8 -3.142
15:22 1020 30.12 849 25.07 26.2 79.2 25 4.8 40.7 -79.8 -3.142
15:23 1020 30.12 849 25.07 26.2 79.2 22 3.3 38 -79.8 -3.142
15:24 1020 30.12 849 25.07 26.2 79.1 24 4.3 39.8 -79.8 -3.142
15:25 1020 30.12 849 25.07 26.2 79.1 23 4 39.2 -79.7 -3.138
15:26 1020 30.12 849 25.07 26.2 79.1 24 4.5 40.1 -79.7 -3.138
15:27 1020 30.12 849 25.07 26.2 79.2 25 4.8 40.7 -79.7 -3.138
15:28 1020 30.12 849 25.07 26.2 79.1 23 3.8 38.9 -79.7 -3.138
15:29 1020 30.12 849 25.07 26.2 79.1 23 3.4 38.1 -79.7 -3.138
15:30 1020 30.12 849 25.07 26.1 79 26 5.2 41.4 -79.6 -3.134
15:31 1020 30.12 849 25.07 26.1 78.9 27 5.7 42.2 -79.6 -3.134
15:32 1020 30.12 849 25.07 26 78.9 24 4 39.2 -79.6 -3.134
15:33 1020 30.12 849 25.07 26 78.8 24 4.4 39.9 -79.6 -3.134
15:34 1020 30.12 849 25.07 26 78.8 24 4 39.2 -79.6 -3.134
15:35 1020 30.12 849 25.07 26 78.8 22 2.8 37 -79.6 -3.134
15:36 1020 30.12 849 25.07 26 78.7 24 4.2 39.5 -79.6 -3.134
15:37 1020 30.12 849 25.07 26 78.8 25 4.7 40.4 -79.6 -3.134
15:38 1020 30.12 849 25.07 26.1 78.9 22 3.1 37.6 -79.6 -3.134
15:39 1020 30.12 849 25.07 26.1 78.9 22 3.2 37.8 -79.6 -3.134
15:40 1020 30.12 849 25.07 26 78.9 23 3.5 38.3 -79.6 -3.134
15:41 1020 30.12 849 25.07 26 78.7 21 2.3 36.1 -79.6 -3.134
15:42 1020 30.12 849 25.07 25.9 78.7 22 2.9 37.3 -79.5 -3.13
15:43 1020 30.12 849 25.07 25.9 78.7 23 3.2 37.8 -79.5 -3.13
15:44 1020 30.12 849 25.07 25.9 78.6 22 2.9 37.2 -79.5 -3.13
15:45 1020 30.12 849 25.07 25.9 78.6 22 2.6 36.7 -79.5 -3.13
15:46 1020 30.12 849 25.07 25.9 78.5 22 2.9 37.2 -79.5 -3.13
15:47 1020 30.12 849 25.07 25.8 78.5 23 3.7 38.6 -79.5 -3.13
15:48 1020 30.12 849 25.07 25.8 78.4 22 2.5 36.4 -79.5 -3.13
15:49 1020 30.12 849 25.07 25.8 78.4 23 3.5 38.3 -79.5 -3.13
15:50 1020 30.12 849 25.07 25.8 78.4 23 3.1 37.5 -79.5 -3.13
15:51 1020 30.12 849 25.07 25.7 78.3 24 4 39.2 -79.5 -3.13
15:52 1020 30.12 849 25.07 25.7 78.2 21 2.1 35.7 -79.5 -3.13
15:53 1020 30.12 849 25.07 25.6 78.1 23 3.5 38.3 -79.5 -3.13
15:54 1020 30.12 849 25.07 25.7 78.2 24 3.8 38.9 -79.5 -3.13
15:55 1020 30.12 849 25.07 25.6 78.1 24 3.7 38.6 -79.5 -3.13
15:56 1020 30.12 849 25.07 25.6 78 26 4.7 40.5 -79.5 -3.13
15:57 1020 30.12 849 25.07 25.5 77.9 25 4.4 39.9 -79.5 -3.13
15:58 1020 30.12 849 25.07 25.5 77.9 24 3.9 39 -79.5 -3.13
15:59 1020 30.12 849 25.07 25.5 77.8 22 2.3 36.2 -79.5 -3.13
16:00 1020 30.12 849 25.07 25.5 77.9 24 3.5 38.3 -79.5 -3.13
16:01 1020 30.12 849 25.07 25.5 78 23 3.3 38 -79.6 -3.134
16:02 1020 30.12 849 25.07 25.6 78.1 26 4.7 40.5 -79.6 -3.134
16:03 1020 30.12 849 25.07 25.6 78 24 4 39.3 -79.6 -3.134
16:04 1020 30.12 849 25.07 25.6 78.1 23 3 37.4 -79.6 -3.134
16:05 1020 30.12 849 25.07 25.6 78.1 22 2.5 36.5 -79.6 -3.134
16:06 1020 30.12 849 25.07 25.7 78.2 21 1.7 35.1 -79.6 -3.134
16:07 1020 30.12 849 25.07 25.7 78.3 22 2.8 37 -79.6 -3.134
16:08 1020 30.12 849 25.07 25.8 78.4 23 3.4 38 -79.7 -3.138
16:09 1020 30.12 849 25.07 25.8 78.4 23 3.3 38 -79.7 -3.138
16:10 1020 30.12 849 25.07 25.8 78.4 22 2.7 36.9 -79.7 -3.138
16:11 1020 30.12 849 25.07 25.9 78.5 19 0.5 32.8 -79.7 -3.138
16:12 1020 30.12 849 25.07 25.9 78.6 19 0.9 33.7 -79.7 -3.138
16:13 1020 30.12 849 25.07 26 78.8 22 2.6 36.7 -79.7 -3.138
16:14 1020 30.12 849 25.07 26 78.9 24 4 39.1 -79.8 -3.142
16:15 1020 30.12 849 25.07 26 78.8 26 5.5 41.9 -79.8 -3.142
16:16 1020 30.12 849 25.07 26 78.7 22 2.7 36.9 -79.7 -3.138
16:17 1020 30.12 849 25.07 25.9 78.7 22 2.9 37.2 -79.7 -3.138
16:18 1020 30.12 849 25.07 26 78.7 21 2.1 35.8 -79.8 -3.142
16:19 1020 30.12 849 25.07 26 78.7 25 4.8 40.6 -79.8 -3.142
16:20 1020 30.12 849 25.07 26 78.7 22 2.6 36.7 -79.8 -3.142
16:21 1020 30.12 849 25.07 25.9 78.6 19 1 33.9 -79.8 -3.142
16:22 1020 30.12 849 25.07 25.9 78.6 23 3.7 38.6 -79.8 -3.142
16:23 1020 30.12 849 25.07 25.9 78.6 23 3.6 38.4 -79.8 -3.142
16:24 1020 30.12 849 25.07 25.9 78.6 20 1.5 34.7 -79.8 -3.142
16:25 1020 30.12 849 25.07 25.9 78.7 20 1.4 34.4 -79.8 -3.142
16:26 1020 30.12 849 25.07 26 78.8 23 3.7 38.7 -79.8 -3.142
16:27 1020 30.12 849 25.07 26 78.8 20 1.6 34.8 -79.8 -3.142
16:28 1020 30.12 849 25.07 26 78.8 20 1.7 35.1 -79.9 -3.146
16:29 1020 30.12 849 25.07 26 78.9 22 2.8 37.1 -79.9 -3.146
16:30 1020 30.12 849 25.07 26 78.8 24 4.2 39.6 -79.9 -3.146
16:31 1020 30.12 849 25.07 26 78.7 20 1.3 34.3 -79.9 -3.146
16:32 1020 30.12 849 25.07 25.9 78.6 20 1.6 34.9 -79.9 -3.146
16:33 1020 30.12 849 25.07 25.9 78.7 22 3 37.4 -79.9 -3.146
16:34 1020 30.12 849 25.07 25.9 78.6 21 2.5 36.5 -79.9 -3.146
16:35 1020 30.12 849 25.07 25.9 78.6 22 2.6 36.7 -79.9 -3.146
16:36 1020 30.12 849 25.07 25.9 78.5 23 3.7 38.7 -79.9 -3.146
16:37 1020 30.12 849 25.07 25.9 78.6 23 3.4 38.1 -80 -3.15
16:38 1020 30.12 849 25.07 25.9 78.6 21 1.9 35.5 -80 -3.15
16:39 1020 30.12 849 25.07 25.9 78.5 21 1.9 35.4 -80 -3.15
16:40 1020 30.12 849 25.07 25.8 78.5 23 3.2 37.7 -80 -3.15
16:41 1020 30.12 849 25.07 25.8 78.5 20 1.2 34.1 -80 -3.15
16:42 1020 30.12 849 25.07 25.9 78.5 19 0.8 33.4 -80 -3.15
16:43 1020 30.12 849 25.07 25.8 78.4 21 2.3 36.1 -80 -3.15
16:44 1020 30.12 849 25.07 25.8 78.5 22 2.4 36.4 -80 -3.15
16:45 1020 30.12 849 25.07 25.7 78.3 21 1.9 35.4 -80 -3.15
16:46 1020 30.12 849 25.07 25.7 78.3 20 1.5 34.6 -80 -3.15
16:47 1020 30.12 849 25.07 25.8 78.4 22 2.4 36.4 -80.1 -3.154
16:48 1019 30.09 849 25.07 25.8 78.4 23 3.1 37.5 -80.1 -3.154
16:49 1020 30.12 849 25.07 25.8 78.4 23 3.4 38.1 -80.1 -3.154
16:50 1019 30.09 849 25.07 25.8 78.4 21 2 35.7 -80.1 -3.154
16:51 1019 30.09 849 25.07 25.8 78.4 24 4.2 39.5 -80.1 -3.154
16:52 1019 30.09 849 25.07 25.8 78.4 25 4.8 40.7 -80.1 -3.154
16:53 1019 30.09 849 25.07 25.7 78.3 25 4.7 40.5 -80.1 -3.154
16:54 1019 30.09 849 25.07 25.7 78.3 24 4 39.2 -80.1 -3.154
16:55 1019 30.09 849 25.07 25.7 78.3 22 2.6 36.7 -80.2 -3.157
16:56 1019 30.09 849 25.07 25.8 78.4 22 2.7 36.9 -80.2 -3.157
16:57 1019 30.09 849 25.07 25.8 78.5 22 2.8 37 -80.2 -3.157
16:58 1019 30.09 849 25.07 25.8 78.5 20 1.6 35 -80.2 -3.157
16:59 1019 30.09 849 25.07 25.9 78.6 23 3.2 37.8 -80.2 -3.157
17:00 1019 30.09 849 25.07 25.9 78.7 22 3 37.3 -80.2 -3.157
17:01 1019 30.09 849 25.07 26 78.8 20 1.2 34.2 -80.3 -3.161
17:02 1019 30.09 849 25.07 26 78.9 24 4.1 39.3 -80.3 -3.161
17:03 1019 30.09 849 25.07 26.1 78.9 30 7.2 44.9 -80.3 -3.161
17:04 1019 30.09 849 25.07 26.1 78.9 27 6.1 43 -80.2 -3.157
17:05 1019 30.09 849 25.07 26.2 79.1 26 5.5 41.9 -80.2 -3.157
17:06 1019 30.09 849 25.07 26.2 79.2 26 5.4 41.7 -80.2 -3.157
17:07 1019 30.09 849 25.07 26.4 79.5 23 4 39.3 -80.2 -3.157
17:08 1019 30.09 849 25.07 26.5 79.8 25 5 40.9 -80.2 -3.157
17:09 1019 30.09 849 25.07 26.7 80.1 31 8.6 47.6 -80.2 -3.157
17:10 1019 30.09 849 25.07 26.7 80.1 35 10.4 50.7 -80.2 -3.157
17:11 1019 30.09 849 25.07 26.6 79.9 36 10.6 51.1 -80.2 -3.157
17:12 1019 30.09 849 25.07 26.5 79.6 29 7.1 44.8 -80.2 -3.157
17:13 1019 30.09 849 25.07 26.3 79.3 31 8.1 46.6 -80.2 -3.157
17:14 1019 30.09 849 25.07 26.2 79.1 30 7.6 45.6 -80.2 -3.157
17:15 1019 30.09 849 25.07 26.1 79 30 7.7 45.8 -80.2 -3.157
17:16 1019 30.09 849 25.07 26.1 79.1 29 7 44.7 -80.1 -3.154
17:17 1019 30.09 849 25.07 26.2 79.1 27 6.1 43 -80.1 -3.154
17:18 1019 30.09 849 25.07 26.3 79.3 26 5.7 42.2 -80.1 -3.154
17:19 1019 30.09 849 25.07 26.4 79.5 29 7.4 45.3 -80.1 -3.154
17:20 1019 30.09 849 25.07 26.4 79.6 26 5.6 42.1 -80.1 -3.154
17:21 1019 30.09 849 25.07 26.5 79.8 22 3.7 38.6 -80.1 -3.154
17:22 1019 30.09 849 25.07 26.6 79.9 23 4.1 39.4 -80.1 -3.154
17:23 1019 30.09 849 25.07 26.7 80.1 20 2.3 36.1 -80.1 -3.154
17:24 1019 30.09 849 25.07 26.9 80.4 23 4.4 39.9 -80 -3.15
17:25 1019 30.09 849 25.07 27.1 80.7 22 3.9 39 -80 -3.15
17:26 1019 30.09 849 25.07 27.3 81.1 20 2.8 37.1 -79.9 -3.146
17:27 1019 30.09 849 25.07 27.5 81.5 20 2.6 36.7 -79.9 -3.146
17:28 1019 30.09 849 25.07 27.6 81.6 21 3.7 38.7 -79.9 -3.146
17:29 1019 30.09 849 25.07 27.5 81.4 20 2.5 36.5 -79.8 -3.142
17:30 1019 30.09 848 25.04 27.5 81.4 22 4.1 39.4 -79.8 -3.142
17:31 1019 30.09 848 25.04 27.5 81.5 22 3.9 39 -79.8 -3.142
17:32 1019 30.09 848 25.04 27.5 81.5 25 5.7 42.3 -79.8 -3.142
17:33 1019 30.09 848 25.04 27.4 81.2 19 2 35.6 -79.7 -3.138
17:34 1019 30.09 848 25.04 27.3 81.1 19 2.1 35.7 -79.7 -3.138
17:35 1019 30.09 848 25.04 27.2 80.9 19 1.6 34.9 -79.7 -3.138
17:36 1019 30.09 848 25.04 27.1 80.8 18 1.2 34.2 -79.6 -3.134
17:37 1019 30.09 848 25.04 27.1 80.7 19 1.8 35.3 -79.6 -3.134
17:38 1019 30.09 848 25.04 27 80.6 17 -0.1 31.8 -79.6 -3.134
17:39 1019 30.09 848 25.04 26.9 80.5 19 1.3 34.4 -79.5 -3.13
17:40 1019 30.09 848 25.04 26.8 80.3 19 1.6 34.8 -79.5 -3.13
17:41 1019 30.09 848 25.04 26.8 80.3 20 2 35.5 -79.4 -3.126
17:42 1019 30.09 848 25.04 26.8 80.2 20 2.4 36.3 -79.4 -3.126
17:43 1019 30.09 848 25.04 26.8 80.2 22 3.5 38.2 -79.3 -3.122
17:44 1019 30.09 848 25.04 26.7 80 19 1.2 34.1 -79.3 -3.122
17:45 1019 30.09 848 25.04 26.6 79.9 19 1.3 34.3 -79.3 -3.122
17:46 1019 30.09 848 25.04 26.4 79.6 20 2.2 36 -79.2 -3.118
17:47 1019 30.09 848 25.04 26.3 79.3 19 1.2 34.1 -79.2 -3.118
17:48 1019 30.09 848 25.04 26.2 79.1 22 3.2 37.8 -79.2 -3.118
17:49 1019 30.09 848 25.04 26 78.9 22 2.7 36.9 -79.1 -3.114
17:50 1019 30.09 848 25.04 25.9 78.5 20 1.6 34.9 -79.1 -3.114
17:51 1019 30.09 848 25.04 25.8 78.4 19 0.5 32.9 -79.1 -3.114
17:52 1019 30.09 848 25.04 25.8 78.4 19 0.4 32.8 -79.1 -3.114
17:53 1019 30.09 848 25.04 25.7 78.3 20 1.3 34.3 -79.1 -3.114
17:54 1019 30.09 848 25.04 25.6 78.1 21 1.9 35.5 -79.1 -3.114
17:55 1019 30.09 848 25.04 25.6 78 21 1.6 34.9 -79.1 -3.114
17:56 1019 30.09 848 25.04 25.4 77.8 22 2.7 36.9 -79.1 -3.114
17:57 1019 30.09 848 25.04 25.3 77.5 21 1.9 35.3 -79.1 -3.114
17:58 1019 30.09 848 25.04 25.2 77.3 22 2.2 36 -79.1 -3.114
17:59 1019 30.09 848 25.04 25 77 21 1.6 34.9 -79.1 -3.114
18:00 1019 30.09 848 25.04 24.9 76.8 22 1.9 35.3 -79.1 -3.114
18:01 1019 30.09 848 25.04 24.8 76.6 22 1.7 35.1 -79.1 -3.114
18:02 1019 30.09 848 25.04 24.7 76.5 21 1.2 34.2 -79.2 -3.118
18:03 1019 30.09 848 25.04 24.7 76.4 21 1 33.8 -79.2 -3.118
18:04 1019 30.09 848 25.04 24.7 76.5 21 1.4 34.5 -79.2 -3.118
18:05 1019 30.09 848 25.04 24.7 76.4 22 1.6 34.9 -79.3 -3.122
18:06 1019 30.09 848 25.04 24.6 76.4 21 1.3 34.3 -79.3 -3.122
18:07 1019 30.09 848 25.04 24.6 76.4 21 1.2 34.1 -79.3 -3.122
18:08 1019 30.09 848 25.04 24.6 76.3 22 1.5 34.8 -79.4 -3.126
18:09 1019 30.09 848 25.04 24.6 76.2 21 1 33.8 -79.4 -3.126
18:10 1019 30.09 848 25.04 24.5 76.2 22 1.5 34.7 -79.5 -3.13
18:11 1019 30.09 848 25.04 24.5 76 22 1.4 34.6 -79.5 -3.13
18:12 1019 30.09 848 25.04 24.4 75.8 21 0.9 33.6 -79.6 -3.134
18:13 1019 30.09 848 25.04 24.3 75.7 22 1.2 34.1 -79.6 -3.134
18:14 1019 30.09 848 25.04 24.1 75.5 22 1.1 34 -79.7 -3.138
18:15 1019 30.09 848 25.04 24.1 75.3 23 1.6 34.9 -79.8 -3.142
18:16 1019 30.09 848 25.04 23.9 75.1 22 1.1 33.9 -79.8 -3.142
18:17 1019 30.09 848 25.04 23.8 74.9 24 2.2 36 -79.9 -3.146
18:18 1019 30.09 848 25.04 23.7 74.7 26 3.3 37.9 -80 -3.15
18:19 1019 30.09 848 25.04 23.4 74.1 26 3.1 37.6 -80 -3.15
18:20 1019 30.09 848 25.04 23.1 73.5 28 3.9 38.9 -80.1 -3.154
18:21 1019 30.09 848 25.04 22.6 72.7 32 5.1 41.2 -80.1 -3.154
18:22 1019 30.09 848 25.04 21.9 71.4 29 3.2 37.8 -80.2 -3.157
18:23 1019 30.09 848 25.04 21.8 71.2 28 2.4 36.4 -80.3 -3.161
18:24 1019 30.09 848 25.04 22 71.5 27 2.3 36.2 -80.4 -3.165
18:25 1019 30.09 848 25.04 22 71.5 29 3.3 38 -80.4 -3.165
18:26 1019 30.09 848 25.04 21.6 70.9 30 3.6 38.5 -80.5 -3.169
18:27 1019 30.09 848 25.04 21.3 70.3 29 2.5 36.6 -80.6 -3.173
18:28 1019 30.09 848 25.04 21.2 70.2 32 3.9 39.1 -80.7 -3.177
18:29 1019 30.09 848 25.04 21 69.9 33 4.2 39.6 -80.8 -3.181
18:30 1019 30.09 848 25.04 20.8 69.4 32 3.7 38.7 -80.9 -3.185
18:31 1019 30.09 848 25.04 20.5 69 34 4.4 40 -80.9 -3.185
18:32 1019 30.09 848 25.04 20.3 68.5 36 4.9 40.8 -81 -3.189
18:33 1019 30.09 848 25.04 19.8 67.7 36 4.7 40.4 -81.1 -3.193
18:34 1019 30.09 848 25.04 19.5 67.2 38 5.1 41.1 -81.2 -3.197
18:35 1019 30.09 848 25.04 19.2 66.6 39 5.2 41.4 -81.3 -3.201
18:36 1019 30.09 848 25.04 18.9 66.1 39 5 41 -81.4 -3.205
18:37 1019 30.09 848 25.04 18.8 65.9 39 4.8 40.6 -81.5 -3.209
18:38 1019 30.09 848 25.04 18.8 65.8 41 5.2 41.4 -81.6 -3.213
18:39 1019 30.09 848 25.04 18.6 65.5 41 5.1 41.2 -81.7 -3.217
18:40 1019 30.09 848 25.04 18.5 65.4 41 5.3 41.6 -81.8 -3.22
18:41 1019 30.09 848 25.04 18.4 65 45 6.4 43.6 -81.9 -3.224
18:42 1019 30.09 848 25.04 18 64.5 45 6.2 43.2 -82 -3.228
18:43 1019 30.09 848 25.04 17.7 63.9 46 6.1 42.9 -82 -3.228
18:44 1019 30.09 848 25.04 17.5 63.5 47 6.1 43 -82.1 -3.232
18:45 1019 30.09 848 25.04 17.3 63.1 48 6.4 43.5 -82.2 -3.236
18:46 1019 30.09 848 25.04 17 62.6 50 6.7 44 -82.3 -3.24
18:47 1019 30.09 848 25.04 16.7 62.1 51 6.7 44.1 -82.4 -3.244
18:48 1019 30.09 848 25.04 16.4 61.5 51 6.4 43.5 -82.4 -3.244
18:49 1019 30.09 848 25.04 16.2 61.2 51 6.1 43 -82.5 -3.248
18:50 1019 30.09 848 25.04 16.1 61 51 6 42.9 -82.6 -3.252
18:51 1019 30.09 848 25.04 16 60.8 51 6 42.8 -82.7 -3.256
18:52 1019 30.09 848 25.04 15.9 60.6 51 5.9 42.6 -82.8 -3.26
18:53 1019 30.09 848 25.04 15.8 60.4 51 5.7 42.2 -82.8 -3.26
18:54 1019 30.09 848 25.04 15.8 60.4 50 5.4 41.6 -82.9 -3.264
18:55 1019 30.09 848 25.04 15.8 60.4 49 5.2 41.4 -83 -3.268
18:56 1019 30.09 848 25.04 15.8 60.5 49 5.3 41.6 -83.1 -3.272
18:57 1019 30.09 848 25.04 15.8 60.5 49 5.2 41.3 -83.2 -3.276
18:58 1019 30.09 848 25.04 15.8 60.4 48 4.9 40.9 -83.3 -3.28
18:59 1019 30.09 848 25.04 15.8 60.4 48 4.8 40.7 -83.3 -3.28
19:00 1019 30.09 848 25.04 15.7 60.3 49 5.1 41.1 -83.4 -3.283
19:01 1019 30.09 848 25.04 15.6 60 49 5.1 41.1 -83.5 -3.287
19:02 1019 30.09 848 25.04 15.5 59.9 48 4.8 40.6 -83.6 -3.291
19:03 1019 30.09 848 25.04 15.5 59.9 48 4.6 40.3 -83.7 -3.295
19:04 1019 30.09 848 25.04 15.5 59.9 48 4.5 40.2 -83.7 -3.295
19:05 1019 30.09 848 25.04 15.4 59.7 48 4.7 40.4 -83.8 -3.299
19:06 1019 30.09 848 25.04 15.3 59.5 49 4.7 40.4 -83.9 -3.303
19:07 1019 30.09 848 25.04 15.1 59.2 49 4.7 40.5 -83.9 -3.303
19:08 1019 30.09 848 25.04 15.1 59.1 49 4.4 40 -84 -3.307
19:09 1019 30.09 848 25.04 15.1 59.2 48 4.3 39.7 -84.1 -3.311
19:10 1019 30.09 848 25.04 15.1 59.2 47 4.1 39.4 -84.1 -3.311
19:11 1019 30.09 848 25.04 15.2 59.4 47 4 39.1 -84.2 -3.315
19:12 1019 30.09 848 25.04 15.3 59.5 46 3.8 38.9 -84.3 -3.319
19:13 1019 30.09 848 25.04 15.4 59.8 45 3.6 38.5 -84.3 -3.319
19:14 1019 30.09 848 25.04 15.5 59.9 45 3.6 38.5 -84.4 -3.323
19:15 1019 30.09 848 25.04 15.6 60 44 3.6 38.5 -84.4 -3.323
19:16 1019 30.09 848 25.04 15.6 60 45 3.8 38.8 -84.5 -3.327
19:17 1019 30.09 848 25.04 15.5 59.9 44 3.5 38.3 -84.6 -3.331
19:18 1019 30.09 848 25.04 15.5 59.8 45 3.6 38.4 -84.6 -3.331
19:19 1019 30.09 848 25.04 15.4 59.7 45 3.7 38.7 -84.7 -3.335
19:20 1019 30.09 848 25.04 15.3 59.5 45 3.5 38.3 -84.7 -3.335
19:21 1019 30.09 848 25.04 15.1 59.2 46 3.5 38.3 -84.8 -3.339
19:22 1019 30.09 848 25.04 14.9 58.8 47 3.6 38.5 -84.8 -3.339
19:23 1019 30.09 848 25.04 14.8 58.6 46 3.4 38.2 -84.9 -3.343
19:24 1019 30.09 848 25.04 14.7 58.5 45 3.1 37.5 -84.9 -3.343
19:25 1019 30.09 848 25.04 14.8 58.6 43 2.6 36.6 -85 -3.346
19:26 1019 30.09 848 25.04 15.1 59.1 42 2.5 36.5 -85 -3.346
19:27 1019 30.09 848 25.04 15.2 59.4 43 2.7 36.9 -85.1 -3.35
19:28 1019 30.09 848 25.04 15.3 59.5 43 2.9 37.3 -85.1 -3.35
19:29 1019 30.09 848 25.04 15.1 59.3 45 3.3 38 -85.2 -3.354
19:30 1019 30.09 848 25.04 15 58.9 45 3.3 37.9 -85.2 -3.354
19:31 1019 30.09 848 25.04 14.8 58.7 45 3.1 37.5 -85.2 -3.354
19:32 1019 30.09 848 25.04 14.8 58.6 44 2.6 36.8 -85.3 -3.358
19:33 1019 30.09 848 25.04 14.8 58.6 43 2.4 36.4 -85.3 -3.358
19:34 1019 30.09 848 25.04 14.8 58.6 44 2.9 37.2 -85.4 -3.362
19:35 1019 30.09 848 25.04 14.7 58.4 47 3.5 38.3 -85.4 -3.362
19:36 1019 30.09 848 25.04 14.4 57.9 48 3.6 38.5 -85.4 -3.362
19:37 1019 30.09 848 25.04 14.1 57.4 49 3.6 38.5 -85.5 -3.366
19:38 1019 30.09 848 25.04 14 57.2 47 3 37.3 -85.5 -3.366
19:39 1019 30.09 848 25.04 14.2 57.6 45 2.6 36.6 -85.5 -3.366
19:40 1019 30.09 848 25.04 14.5 58.1 44 2.6 36.7 -85.6 -3.37
19:41 1019 30.09 848 25.04 14.7 58.5 45 2.9 37.2 -85.6 -3.37
19:42 1019 30.09 848 25.04 14.7 58.4 48 3.8 38.8 -85.6 -3.37
19:43 1019 30.09 848 25.04 14.4 57.8 48 3.7 38.7 -85.7 -3.374
19:44 1019 30.09 848 25.04 14.1 57.3 49 3.6 38.4 -85.7 -3.374
19:45 1019 30.09 848 25.04 13.8 56.9 49 3.5 38.3 -85.7 -3.374
19:46 1019 30.09 848 25.04 13.7 56.6 50 3.5 38.2 -85.8 -3.378
19:47 1019 30.09 848 25.04 13.6 56.4 49 3.2 37.8 -85.8 -3.378
19:48 1019 30.09 848 25.04 13.6 56.4 48 3 37.4 -85.8 -3.378
19:49 1019 30.09 848 25.04 13.7 56.7 47 2.6 36.8 -85.8 -3.378
19:50 1019 30.09 848 25.04 13.9 57.1 46 2.6 36.7 -85.9 -3.382
19:51 1019 30.09 848 25.04 14 57.2 46 2.6 36.6 -85.9 -3.382
19:52 1019 30.09 848 25.04 14.1 57.3 46 2.8 37 -86 -3.386
19:53 1019 30.09 848 25.04 14 57.1 46 2.7 36.9 -86 -3.386
19:54 1019 30.09 848 25.04 13.9 57 47 2.7 36.9 -86 -3.386
19:55 1019 30.09 848 25.04 13.8 56.8 47 2.8 37.1 -86 -3.386
19:56 1019 30.09 849 25.07 13.6 56.6 48 3 37.4 -86.1 -3.39
19:57 1019 30.09 848 25.04 13.5 56.2 49 2.9 37.3 -86.1 -3.39
19:58 1019 30.09 848 25.04 13.3 55.9 49 2.8 37.1 -86.1 -3.39
19:59 1019 30.09 849 25.07 13.2 55.8 48 2.6 36.6 -86.1 -3.39
20:00 1019 30.09 848 25.04 13.2 55.8 48 2.5 36.5 -86.2 -3.394
20:01 1019 30.09 849 25.07 13.3 55.9 47 2.4 36.2 -86.2 -3.394
20:02 1019 30.09 849 25.07 13.4 56.1 47 2.3 36.1 -86.2 -3.394
20:03 1019 30.09 849 25.07 13.5 56.2 47 2.4 36.3 -86.3 -3.398
20:04 1019 30.09 849 25.07 13.6 56.5 46 2.4 36.3 -86.3 -3.398
20:05 1019 30.09 849 25.07 13.7 56.6 46 2.4 36.3 -86.3 -3.398
20:06 1019 30.09 849 25.07 13.7 56.6 46 2.4 36.3 -86.3 -3.398
20:07 1019 30.09 849 25.07 13.7 56.6 47 2.5 36.6 -86.4 -3.402
20:08 1019 30.09 849 25.07 13.6 56.5 46 2.4 36.3 -86.4 -3.402
20:09 1019 30.09 849 25.07 13.6 56.5 45 2.1 35.8 -86.4 -3.402
20:10 1019 30.09 849 25.07 13.7 56.7 45 2 35.6 -86.4 -3.402
20:11 1019 30.09 849 25.07 13.9 56.9 44 1.9 35.4 -86.5 -3.406
20:12 1019 30.09 848 25.04 14.1 57.3 43 1.7 35.1 -86.5 -3.406
20:13 1019 30.09 849 25.07 14.3 57.7 42 1.7 35.1 -86.5 -3.406
20:14 1019 30.09 849 25.07 14.5 58.1 42 2 35.5 -86.5 -3.406
20:15 1019 30.09 849 25.07 14.5 58.1 42 2 35.6 -86.5 -3.406
20:16 1019 30.09 849 25.07 14.4 58 43 2.2 35.9 -86.6 -3.409
20:17 1019 30.09 849 25.07 14.3 57.7 44 2.4 36.3 -86.6 -3.409
20:18 1019 30.09 849 25.07 14.1 57.4 44 2.1 35.7 -86.6 -3.409
20:19 1019 30.09 849 25.07 13.9 57.1 45 2.3 36.2 -86.6 -3.409
20:20 1019 30.09 849 25.07 13.8 56.8 43 1.6 34.8 -86.7 -3.413
20:21 1019 30.09 849 25.07 14.1 57.5 41 1.3 34.3 -86.7 -3.413
20:22 1019 30.09 849 25.07 14.7 58.4 40 1.5 34.6 -86.7 -3.413
20:23 1019 30.09 849 25.07 15 58.9 40 1.6 34.9 -86.7 -3.413
20:24 1020 30.12 849 25.07 15 59 40 1.7 35 -86.7 -3.413
20:25 1019 30.09 849 25.07 15.1 59.1 40 1.8 35.2 -86.7 -3.413
20:26 1019 30.09 849 25.07 15.1 59.1 40 1.8 35.2 -86.7 -3.413
20:27 1019 30.09 849 25.07 15.1 59.1 41 2 35.6 -86.7 -3.413
20:28 1019 30.09 849 25.07 15 58.9 43 2.5 36.4 -86.8 -3.417
20:29 1020 30.12 849 25.07 14.6 58.3 44 2.6 36.8 -86.8 -3.417
20:30 1020 30.12 849 25.07 14.2 57.6 46 2.8 37.1 -86.8 -3.417
20:31 1020 30.12 849 25.07 14 57.1 47 2.9 37.2 -86.8 -3.417
20:32 1020 30.12 849 25.07 14 57.2 46 2.5 36.5 -86.8 -3.417
20:33 1020 30.12 849 25.07 14.3 57.7 44 2.3 36.2 -86.8 -3.417
20:34 1020 30.12 849 25.07 14.5 58.2 43 2.1 35.8 -86.8 -3.417
20:35 1020 30.12 849 25.07 14.8 58.7 41 2 35.5 -86.9 -3.421
20:36 1020 30.12 849 25.07 15 59 40 1.7 35 -86.9 -3.421
20:37 1020 30.12 849 25.07 15.3 59.6 39 1.4 34.6 -86.9 -3.421
20:38 1020 30.12 849 25.07 15.6 60.1 38 1.4 34.4 -86.9 -3.421
20:39 1020 30.12 849 25.07 15.8 60.5 37 1.3 34.3 -86.9 -3.421
20:40 1020 30.12 849 25.07 16 60.8 36 1.1 34 -86.9 -3.421
20:41 1020 30.12 849 25.07 16.2 61.1 36 1.3 34.3 -86.9 -3.421
20:42 1020 30.12 849 25.07 16.2 61.2 35 1 33.9 -86.9 -3.421
20:43 1020 30.12 849 25.07 16.3 61.3 35 0.9 33.6 -86.9 -3.421
20:44 1020 30.12 849 25.07 16.4 61.5 35 0.8 33.5 -86.9 -3.421
20:45 1020 30.12 849 25.07 16.4 61.5 34 0.7 33.2 -87 -3.425
20:46 1020 30.12 849 25.07 16.5 61.7 34 0.7 33.3 -87 -3.425
20:47 1020 30.12 849 25.07 16.5 61.7 35 1 33.8 -87 -3.425
20:48 1020 30.12 849 25.07 16.4 61.6 35 0.9 33.6 -87 -3.425
20:49 1020 30.12 849 25.07 16.5 61.6 34 0.9 33.5 -87 -3.425
20:50 1020 30.12 849 25.07 16.4 61.5 36 1.5 34.7 -87 -3.425
20:51 1020 30.12 849 25.07 16.1 61.1 36 1.3 34.3 -87 -3.425
20:52 1020 30.12 849 25.07 16.1 60.9 36 1 33.8 -87 -3.425
20:53 1020 30.12 849 25.07 16 60.9 37 1.5 34.7 -87 -3.425
20:54 1020 30.12 849 25.07 15.9 60.6 38 1.5 34.8 -87 -3.425
20:55 1020 30.12 849 25.07 15.7 60.3 38 1.6 34.9 -87 -3.425
20:56 1020 30.12 849 25.07 15.6 60 38 1.4 34.4 -87 -3.425
20:57 1020 30.12 849 25.07 15.5 59.9 39 1.7 35 -87 -3.425
20:58 1020 30.12 849 25.07 15.3 59.6 39 1.7 35 -87 -3.425
20:59 1020 30.12 849 25.07 15.2 59.3 40 1.8 35.2 -87 -3.425
21:00 1020 30.12 849 25.07 15 59.1 40 1.8 35.2 -87.1 -3.429
21:01 1020 30.12 849 25.07 14.9 58.7 42 2 35.7 -87.1 -3.429
21:02 1020 30.12 849 25.07 14.6 58.3 41 1.6 34.8 -87.1 -3.429
21:03 1020 30.12 849 25.07 14.6 58.3 40 1.2 34.2 -87.1 -3.429
21:04 1020 30.12 849 25.07 14.9 58.8 39 1.2 34.1 -87.1 -3.429
21:05 1020 30.12 849 25.07 15.1 59.2 38 1.1 34 -87.1 -3.429
21:06 1020 30.12 849 25.07 15.3 59.5 37 1 33.7 -87.1 -3.429
21:07 1020 30.12 849 25.07 15.5 60 36 0.8 33.4 -87.1 -3.429
21:08 1020 30.12 849 25.07 15.8 60.4 36 1 33.9 -87.1 -3.429
21:09 1020 30.12 849 25.07 15.9 60.7 37 1.2 34.2 -87.1 -3.429
21:10 1020 30.12 849 25.07 16 60.9 36 0.9 33.6 -87.1 -3.429
21:11 1020 30.12 849 25.07 16.1 61 36 1 33.9 -87.1 -3.429
21:12 1020 30.12 849 25.07 16.2 61.1 36 1.2 34.1 -87.1 -3.429
21:13 1020 30.12 849 25.07 16.1 61 37 1.4 34.5 -87.1 -3.429
21:14 1020 30.12 849 25.07 16.1 60.9 36 1.2 34.1 -87.2 -3.433
21:15 1020 30.12 849 25.07 16.1 60.9 36 0.9 33.7 -87.2 -3.433
21:16 1020 30.12 849 25.07 16.1 60.9 36 1.1 33.9 -87.2 -3.433
21:17 1020 30.12 849 25.07 16.1 61 35 0.7 33.2 -87.2 -3.433
21:18 1020 30.12 849 25.07 16.2 61.2 35 0.7 33.3 -87.2 -3.433
21:19 1020 30.12 849 25.07 16.4 61.4 35 0.8 33.4 -87.2 -3.433
21:20 1020 30.12 849 25.07 16.4 61.6 35 0.9 33.6 -87.2 -3.433
21:21 1020 30.12 849 25.07 16.5 61.7 34 0.5 33 -87.2 -3.433
21:22 1020 30.12 849 25.07 16.7 62 34 0.6 33.2 -87.2 -3.433
21:23 1020 30.12 849 25.07 16.7 62.1 33 0.5 32.8 -87.2 -3.433
21:24 1020 30.12 849 25.07 16.8 62.2 33 0.7 33.2 -87.2 -3.433
21:25 1020 30.12 849 25.07 16.8 62.2 33 0.6 33 -87.2 -3.433
21:26 1020 30.12 849 25.07 16.8 62.2 33 0.5 33 -87.2 -3.433
21:27 1020 30.12 849 25.07 16.8 62.3 33 0.6 33.1 -87.2 -3.433
21:28 1020 30.12 849 25.07 16.8 62.2 33 0.6 33.1 -87.2 -3.433
21:29 1020 30.12 849 25.07 16.8 62.2 33 0.5 32.8 -87.2 -3.433
21:30 1020 30.12 849 25.07 16.9 62.4 32 0.4 32.7 -87.2 -3.433
21:31 1020 30.12 849 25.07 17 62.7 32 0.5 32.8 -87.2 -3.433
21:32 1020 30.12 849 25.07 17.1 62.8 33 0.6 33.1 -87.2 -3.433
21:33 1020 30.12 849 25.07 17 62.5 33 0.7 33.3 -87.2 -3.433
21:34 1020 30.12 849 25.07 16.8 62.2 33 0.7 33.2 -87.2 -3.433
21:35 1020 30.12 849 25.07 16.6 61.9 34 0.7 33.3 -87.2 -3.433
21:36 1020 30.12 849 25.07 16.5 61.7 34 0.8 33.4 -87.2 -3.433
21:37 1020 30.12 849 25.07 16.4 61.5 34 0.8 33.4 -87.2 -3.433
21:38 1020 30.12 849 25.07 16.3 61.3 35 0.8 33.4 -87.2 -3.433
21:39 1020 30.12 849 25.07 16.2 61.1 35 0.8 33.5 -87.2 -3.433
21:40 1020 30.12 849 25.07 16 60.8 36 0.9 33.6 -87.2 -3.433
21:41 1020 30.12 849 25.07 16 60.7 36 1 33.8 -87.2 -3.433
21:42 1020 30.12 849 25.07 15.8 60.4 36 1 33.9 -87.2 -3.433
21:43 1020 30.12 849 25.07 15.6 60 40 2.2 36 -87.2 -3.433
21:44 1020 30.12 849 25.07 15 58.9 41 2 35.6 -87.2 -3.433
21:45 1020 30.12 849 25.07 14.4 57.8 40 1.1 34 -87.2 -3.433
21:46 1020 30.12 849 25.07 14.3 57.8 41 1.2 34.2 -87.2 -3.433
21:47 1020 30.12 849 25.07 14.2 57.5 42 1.4 34.5 -87.2 -3.433
21:48 1020 30.12 849 25.07 13.9 57 43 1.7 35.1 -87.2 -3.433
21:49 1020 30.12 849 25.07 13.6 56.4 44 1.8 35.2 -87.2 -3.433
21:50 1020 30.12 849 25.07 13.3 55.9 44 1.3 34.4 -87.3 -3.437
21:51 1020 30.12 849 25.07 13.2 55.8 44 1.2 34.2 -87.3 -3.437
21:52 1020 30.12 849 25.07 13.3 55.9 44 1.3 34.3 -87.3 -3.437
21:53 1020 30.12 849 25.07 13.3 55.9 44 1.3 34.3 -87.3 -3.437
21:54 1020 30.12 849 25.07 13.2 55.8 43 1.1 34 -87.3 -3.437
21:55 1020 30.12 849 25.07 13.2 55.8 43 1 33.8 -87.3 -3.437
21:56 1020 30.12 849 25.07 13.4 56.1 42 0.8 33.4 -87.3 -3.437
21:57 1020 30.12 849 25.07 13.6 56.4 41 0.8 33.4 -87.3 -3.437
21:58 1020 30.12 849 25.07 13.7 56.7 42 1 33.8 -87.4 -3.441
21:59 1020 30.12 849 25.07 13.7 56.6 43 1.3 34.4 -87.4 -3.441
22:00 1020 30.12 849 25.07 13.4 56.2 43 1.3 34.3 -87.4 -3.441
22:01 1020 30.12 849 25.07 13.2 55.8 44 1.2 34.2 -87.4 -3.441
22:02 1020 30.12 849 25.07 13.2 55.7 44 1.1 34 -87.4 -3.441
22:03 1020 30.12 849 25.07 13.2 55.8 43 1.2 34.1 -87.4 -3.441
22:04 1020 30.12 849 25.07 13.4 56 42 0.9 33.5 -87.4 -3.441
22:05 1020 30.12 849 25.07 13.7 56.6 40 0.3 32.5 -87.4 -3.441
22:06 1020 30.12 849 25.07 14.3 57.8 38 0.1 32.2 -87.4 -3.441
22:07 1020 30.12 849 25.07 14.8 58.7 38 0.8 33.4 -87.4 -3.441
22:08 1020 30.12 849 25.07 14.8 58.7 40 1.5 34.8 -87.5 -3.445
22:09 1020 30.12 849 25.07 14.3 57.7 41 1.3 34.4 -87.5 -3.445
22:10 1020 30.12 849 25.07 14.2 57.5 40 0.8 33.4 -87.5 -3.445
22:11 1020 30.12 849 25.07 14.3 57.8 40 0.9 33.7 -87.5 -3.445
22:12 1020 30.12 849 25.07 14.4 58 40 1 33.7 -87.5 -3.445
22:13 1020 30.12 849 25.07 14.6 58.2 38 0.6 33.1 -87.5 -3.445
22:14 1020 30.12 849 25.07 15 58.9 36 0.2 32.4 -87.5 -3.445
22:15 1020 30.12 849 25.07 15.4 59.8 36 0.4 32.8 -87.5 -3.445
22:16 1020 30.12 849 25.07 15.7 60.2 35 0.3 32.6 -87.6 -3.449
22:17 1020 30.12 849 25.07 15.9 60.5 35 0.4 32.7 -87.6 -3.449
22:18 1020 30.12 849 25.07 16 60.8 34 0.4 32.7 -87.6 -3.449
22:19 1020 30.12 849 25.07 16.1 60.9 34 0.3 32.5 -87.6 -3.449
22:20 1020 30.12 849 25.07 16.2 61.1 33 0.2 32.3 -87.6 -3.449
22:21 1020 30.12 849 25.07 16.3 61.4 33 0.1 32.2 -87.6 -3.449
22:22 1020 30.12 849 25.07 16.5 61.6 32 0 32 -87.6 -3.449
22:23 1020 30.12 849 25.07 16.7 62 32 0.2 32.3 -87.6 -3.449
22:24 1020 30.12 849 25.07 16.8 62.2 32 0.2 32.3 -87.6 -3.449
22:25 1020 30.12 849 25.07 16.8 62.2 32 0.1 32.2 -87.6 -3.449
22:26 1020 30.12 849 25.07 16.8 62.3 32 0.2 32.3 -87.6 -3.449
22:27 1020 30.12 849 25.07 16.7 62.1 32 0.1 32.2 -87.6 -3.449
22:28 1020 30.12 849 25.07 16.7 62.1 33 0.3 32.6 -87.6 -3.449
22:29 1020 30.12 849 25.07 16.6 61.8 32 0.1 32.2 -87.6 -3.449
22:30 1020 30.12 849 25.07 16.5 61.7 33 0.4 32.8 -87.6 -3.449
22:31 1020 30.12 849 25.07 16.3 61.4 34 0.7 33.3 -87.6 -3.449
22:32 1020 30.12 849 25.07 16.1 61 33 0.1 32.2 -87.6 -3.449
22:33 1020 30.12 849 25.07 16.1 61 34 0.2 32.3 -87.6 -3.449
22:34 1020 30.12 849 25.07 16.1 60.9 34 0.2 32.3 -87.6 -3.449
22:35 1020 30.12 849 25.07 16 60.8 35 0.5 32.9 -87.6 -3.449
22:36 1020 30.12 849 25.07 15.8 60.5 36 0.8 33.4 -87.6 -3.449
22:37 1020 30.12 849 25.07 15.5 59.9 36 0.8 33.4 -87.6 -3.449
22:38 1020 30.12 849 25.07 15.3 59.6 36 0.5 32.9 -87.6 -3.449
22:39 1020 30.12 849 25.07 15.3 59.5 37 0.6 33.1 -87.6 -3.449
22:40 1020 30.12 849 25.07 15.3 59.5 36 0.5 32.9 -87.6 -3.449
22:41 1020 30.12 849 25.07 15.3 59.5 37 0.6 33.1 -87.6 -3.449
22:42 1020 30.12 849 25.07 15.2 59.3 37 0.6 33 -87.6 -3.449
22:43 1020 30.12 849 25.07 15.2 59.3 37 0.6 33.2 -87.6 -3.449
22:44 1020 30.12 849 25.07 15.1 59.1 38 0.8 33.5 -87.6 -3.449
22:45 1020 30.12 849 25.07 14.9 58.9 38 0.7 33.3 -87.6 -3.449
22:46 1020 30.12 849 25.07 14.9 58.8 38 0.8 33.4 -87.6 -3.449
22:47 1020 30.12 849 25.07 14.8 58.6 38 0.8 33.5 -87.6 -3.449
22:48 1020 30.12 849 25.07 14.7 58.5 38 0.6 33.1 -87.6 -3.449
22:49 1020 30.12 849 25.07 14.8 58.6 37 0.4 32.8 -87.6 -3.449
22:50 1020 30.12 849 25.07 14.7 58.5 38 0.7 33.3 -87.6 -3.449
22:51 1020 30.12 849 25.07 14.6 58.3 39 0.8 33.4 -87.6 -3.449
22:52 1020 30.12 849 25.07 14.5 58.1 39 0.8 33.4 -87.6 -3.449
22:53 1020 30.12 849 25.07 14.4 57.9 39 0.8 33.4 -87.6 -3.449
22:54 1020 30.12 849 25.07 14.4 57.9 38 0.5 32.9 -87.6 -3.449
22:55 1020 30.12 849 25.07 14.5 58.1 39 0.6 33.1 -87.6 -3.449
22:56 1020 30.12 849 25.07 14.5 58.2 39 0.7 33.3 -87.7 -3.453
22:57 1020 30.12 849 25.07 14.5 58 39 0.7 33.3 -87.7 -3.453
22:58 1020 30.12 849 25.07 14.4 58 39 0.8 33.5 -87.7 -3.453
22:59 1020 30.12 849 25.07 14.4 58 39 0.8 33.5 -87.7 -3.453
23:00 1020 30.12 849 25.07 14.5 58 39 0.8 33.5 -87.7 -3.453
23:01 1020 30.12 849 25.07 14.5 58 39 0.8 33.4 -87.7 -3.453
23:02 1020 30.12 849 25.07 14.6 58.3 38 0.5 32.9 -87.7 -3.453
23:03 1020 30.12 849 25.07 14.8 58.6 37 0.4 32.7 -87.7 -3.453
23:04 1020 30.12 849 25.07 15 59 36 0.1 32.2 -87.7 -3.453
23:05 1020 30.12 849 25.07 15.3 59.5 36 0.2 32.3 -87.7 -3.453
23:06 1020 30.12 849 25.07 15.6 60 35 0.1 32.2 -87.7 -3.453
23:07 1020 30.12 849 25.07 15.8 60.5 34 -0.1 31.9 -87.7 -3.453
23:08 1020 30.12 849 25.07 16 60.8 33 -0.1 31.8 -87.7 -3.453
23:09 1020 30.12 849 25.07 16.2 61.1 33 0.1 32.2 -87.7 -3.453
23:10 1020 30.12 849 25.07 16.2 61.2 33 0 32 -87.7 -3.453
23:11 1020 30.12 849 25.07 16.3 61.3 33 -0.1 31.9 -87.8 -3.457
23:12 1020 30.12 849 25.07 16.4 61.6 33 0 32 -87.8 -3.457
23:13 1020 30.12 849 25.07 16.3 61.4 33 0.2 32.3 -87.8 -3.457
23:14 1020 30.12 849 25.07 16.1 60.9 35 0.6 33 -87.8 -3.457
23:15 1020 30.12 849 25.07 15.8 60.4 35 0.4 32.7 -87.8 -3.457
23:16 1020 30.12 849 25.07 15.6 60.1 36 0.6 33.1 -87.8 -3.457
23:17 1020 30.12 849 25.07 15.5 59.8 36 0.7 33.2 -87.8 -3.457
23:18 1020 30.12 849 25.07 15.4 59.7 36 0.4 32.7 -87.8 -3.457
23:19 1020 30.12 849 25.07 15.5 59.9 34 -0.2 31.7 -87.8 -3.457
23:20 1020 30.12 849 25.07 15.7 60.3 34 0.2 32.4 -87.8 -3.457
23:21 1020 30.12 849 25.07 15.8 60.4 34 0.2 32.3 -87.8 -3.457
23:22 1020 30.12 849 25.07 15.7 60.3 35 0.4 32.7 -87.8 -3.457
23:23 1020 30.12 849 25.07 15.7 60.3 34 0 32 -87.8 -3.457
23:24 1020 30.12 849 25.07 15.9 60.6 34 0 32 -87.8 -3.457
23:25 1020 30.12 849 25.07 16 60.8 33 -0 31.9 -87.8 -3.457
23:26 1020 30.12 849 25.07 16.1 61 33 0 32.1 -87.8 -3.457
23:27 1020 30.12 849 25.07 16.2 61.2 33 0.1 32.2 -87.8 -3.457
23:28 1020 30.12 849 25.07 16.1 61.1 34 0.5 32.9 -87.8 -3.457
23:29 1020 30.12 849 25.07 16 60.8 35 0.5 33 -87.8 -3.457
23:30 1020 30.12 849 25.07 15.9 60.6 35 0.6 33 -87.8 -3.457
23:31 1020 30.12 849 25.07 15.7 60.3 35 0.6 33 -87.8 -3.457
23:32 1020 30.12 849 25.07 15.6 60.1 36 0.7 33.3 -87.8 -3.457
23:33 1020 30.12 849 25.07 15.4 59.8 37 0.8 33.4 -87.8 -3.457
23:34 1020 30.12 849 25.07 15.2 59.3 38 1 33.7 -87.8 -3.457
23:35 1020 30.12 849 25.07 15 58.9 38 0.8 33.5 -87.8 -3.457
23:36 1020 30.12 849 25.07 14.8 58.6 38 0.8 33.4 -87.8 -3.457
23:37 1020 30.12 849 25.07 14.7 58.4 39 0.9 33.6 -87.8 -3.457
23:38 1020 30.12 849 25.07 14.4 58 40 1.2 34.1 -87.8 -3.457
23:39 1020 30.12 849 25.07 14.1 57.3 40 0.8 33.4 -87.9 -3.461
23:40 1020 30.12 849 25.07 13.8 56.9 40 0.4 32.8 -87.9 -3.461
23:41 1020 30.12 849 25.07 13.9 57.1 39 0.2 32.3 -87.9 -3.461
23:42 1020 30.12 849 25.07 14.2 57.5 38 0.2 32.3 -87.9 -3.461
23:43 1020 30.12 849 25.07 14.3 57.7 37 -0 31.9 -87.9 -3.461
23:44 1020 30.12 849 25.07 14.5 58 37 -0.1 31.9 -87.9 -3.461
23:45 1020 30.12 849 25.07 14.6 58.2 36 -0.2 31.6 -87.9 -3.461
23:46 1020 30.12 849 25.07 14.7 58.5 36 0 32 -87.9 -3.461
23:47 1020 30.12 849 25.07 14.7 58.4 36 -0.1 31.8 -87.9 -3.461
23:48 1020 30.12 849 25.07 14.7 58.4 37 0.1 32.2 -87.9 -3.461
23:49 1020 30.12 849 25.07 14.6 58.3 37 0.1 32.1 -87.9 -3.461
23:50 1020 30.12 849 25.07 14.5 58.2 37 0.1 32.2 -87.9 -3.461
23:51 1020 30.12 849 25.07 14.5 58 37 0.2 32.3 -88 -3.465
23:52 1020 30.12 849 25.07 14.3 57.7 38 0.2 32.3 -88 -3.465
23:53 1020 30.12 849 25.07 14.1 57.3 38 0.1 32.2 -88 -3.465
23:54 1020 30.12 849 25.07 14 57.1 38 0 32 -88 -3.465
23:55 1020 30.12 849 25.07 14 57.1 38 -0.2 31.7 -88 -3.465
23:56 1020 30.12 849 25.07 14.2 57.6 36 -0.7 30.8 -88 -3.465
23:57 1020 30.12 849 25.07 14.7 58.5 35 -0.5 31.1 -88 -3.465
23:58 1020 30.12 849 25.07 15 59.1 35 -0.4 31.3 -88 -3.465
23:59 1020 30.12 849 25.07 15 59.1 35 -0.2 31.7 -88 -3.465
24:00 1020 30.12 849 25.07 14.8 58.7 36 -0 31.9 -88 -3.465